<?xml version="1.0" encoding="UTF-8" standalone="no" ?>
<gpx xmlns="http://www.topografix.com/GPX/1/1" xmlns:xsi="http://www.w3.org/2001/XMLSchema-instance" xsi:schemaLocation="http://www.topografix.com/GPX/1/1 http://www.topografix.com/GPX/1/1/gpx.xsd" version="1.1" creator="VisuGPX - https://www.visugpx.com">
  <metadata>
    <name>Seraincourt-WDJV-Avernes-Théméricourt</name>
    <desc><![CDATA[fait]]></desc>
  </metadata>
  <trk>
    <name><![CDATA[Seraincourt-Jambville-WDJV-Avernes-Théméricourt-14571999]]></name>
    <trkseg>
      <trkpt lat="49.0348" lon="1.8644">
        <ele>39</ele>
        <time>2023-01-10T07:37:32Z</time>
      </trkpt>
      <trkpt lat="49.03487" lon="1.86468">
        <ele>38</ele>
        <time>2023-01-10T07:37:58Z</time>
      </trkpt>
      <trkpt lat="49.03482" lon="1.86436">
        <ele>39</ele>
        <time>2023-01-10T07:38:27Z</time>
      </trkpt>
      <trkpt lat="49.03489" lon="1.86452">
        <ele>39</ele>
        <time>2023-01-10T07:38:44Z</time>
      </trkpt>
      <trkpt lat="49.03499" lon="1.86533">
        <ele>39</ele>
        <time>2023-01-10T07:39:56Z</time>
      </trkpt>
      <trkpt lat="49.03518" lon="1.86574">
        <ele>40</ele>
        <time>2023-01-10T07:40:40Z</time>
      </trkpt>
      <trkpt lat="49.03524" lon="1.86597">
        <ele>40</ele>
        <time>2023-01-10T07:41:02Z</time>
      </trkpt>
      <trkpt lat="49.03543" lon="1.86625">
        <ele>40</ele>
        <time>2023-01-10T07:41:37Z</time>
      </trkpt>
      <trkpt lat="49.03552" lon="1.86632">
        <ele>40</ele>
        <time>2023-01-10T07:41:50Z</time>
      </trkpt>
      <trkpt lat="49.03586" lon="1.86634">
        <ele>41</ele>
        <time>2023-01-10T07:42:36Z</time>
      </trkpt>
      <trkpt lat="49.03619" lon="1.86649">
        <ele>44</ele>
        <time>2023-01-10T07:43:22Z</time>
      </trkpt>
      <trkpt lat="49.03638" lon="1.8665">
        <ele>45</ele>
        <time>2023-01-10T07:43:47Z</time>
      </trkpt>
      <trkpt lat="49.03696" lon="1.86682">
        <ele>49</ele>
        <time>2023-01-10T07:45:09Z</time>
      </trkpt>
      <trkpt lat="49.0374" lon="1.86677">
        <ele>53</ele>
        <time>2023-01-10T07:46:08Z</time>
      </trkpt>
      <trkpt lat="49.03771" lon="1.86684">
        <ele>55</ele>
        <time>2023-01-10T07:46:50Z</time>
      </trkpt>
      <trkpt lat="49.03798" lon="1.86673">
        <ele>57</ele>
        <time>2023-01-10T07:47:27Z</time>
      </trkpt>
      <trkpt lat="49.03834" lon="1.86673">
        <ele>60</ele>
        <time>2023-01-10T07:48:15Z</time>
      </trkpt>
      <trkpt lat="49.03866" lon="1.86685">
        <ele>61</ele>
        <time>2023-01-10T07:48:59Z</time>
      </trkpt>
      <trkpt lat="49.03945" lon="1.86698">
        <ele>67</ele>
        <time>2023-01-10T07:50:45Z</time>
      </trkpt>
      <trkpt lat="49.0398" lon="1.86726">
        <ele>67</ele>
        <time>2023-01-10T07:51:38Z</time>
      </trkpt>
      <trkpt lat="49.03997" lon="1.8672">
        <ele>69</ele>
        <time>2023-01-10T07:52:01Z</time>
      </trkpt>
      <trkpt lat="49.04044" lon="1.86716">
        <ele>73</ele>
        <time>2023-01-10T07:53:04Z</time>
      </trkpt>
      <trkpt lat="49.04068" lon="1.86708">
        <ele>75</ele>
        <time>2023-01-10T07:53:37Z</time>
      </trkpt>
      <trkpt lat="49.04097" lon="1.86711">
        <ele>77</ele>
        <time>2023-01-10T07:54:16Z</time>
      </trkpt>
      <trkpt lat="49.04114" lon="1.86708">
        <ele>78</ele>
        <time>2023-01-10T07:54:39Z</time>
      </trkpt>
      <trkpt lat="49.04123" lon="1.86702">
        <ele>78</ele>
        <time>2023-01-10T07:54:52Z</time>
      </trkpt>
      <trkpt lat="49.04177" lon="1.86641">
        <ele>84</ele>
        <time>2023-01-10T07:56:21Z</time>
      </trkpt>
      <trkpt lat="49.04196" lon="1.86631">
        <ele>85</ele>
        <time>2023-01-10T07:56:48Z</time>
      </trkpt>
      <trkpt lat="49.04257" lon="1.8658">
        <ele>87</ele>
        <time>2023-01-10T07:58:21Z</time>
      </trkpt>
      <trkpt lat="49.04284" lon="1.86569">
        <ele>88</ele>
        <time>2023-01-10T07:58:58Z</time>
      </trkpt>
      <trkpt lat="49.04311" lon="1.86565">
        <ele>89</ele>
        <time>2023-01-10T07:59:34Z</time>
      </trkpt>
      <trkpt lat="49.0437" lon="1.86566">
        <ele>89</ele>
        <time>2023-01-10T08:00:53Z</time>
      </trkpt>
      <trkpt lat="49.04415" lon="1.86573">
        <ele>89</ele>
        <time>2023-01-10T08:01:54Z</time>
      </trkpt>
      <trkpt lat="49.04475" lon="1.86572">
        <ele>93</ele>
        <time>2023-01-10T08:03:14Z</time>
      </trkpt>
      <trkpt lat="49.04519" lon="1.86582">
        <ele>95</ele>
        <time>2023-01-10T08:04:13Z</time>
      </trkpt>
      <trkpt lat="49.04542" lon="1.86582">
        <ele>96</ele>
        <time>2023-01-10T08:04:44Z</time>
      </trkpt>
      <trkpt lat="49.04597" lon="1.86614">
        <ele>97</ele>
        <time>2023-01-10T08:06:02Z</time>
      </trkpt>
      <trkpt lat="49.0461" lon="1.86629">
        <ele>97</ele>
        <time>2023-01-10T08:06:24Z</time>
      </trkpt>
      <trkpt lat="49.04638" lon="1.86648">
        <ele>97</ele>
        <time>2023-01-10T08:07:05Z</time>
      </trkpt>
      <trkpt lat="49.0467" lon="1.86683">
        <ele>98</ele>
        <time>2023-01-10T08:07:57Z</time>
      </trkpt>
      <trkpt lat="49.04695" lon="1.86725">
        <ele>96</ele>
        <time>2023-01-10T08:08:47Z</time>
      </trkpt>
      <trkpt lat="49.04703" lon="1.86727">
        <ele>96</ele>
        <time>2023-01-10T08:08:58Z</time>
      </trkpt>
      <trkpt lat="49.04743" lon="1.86664">
        <ele>98</ele>
        <time>2023-01-10T08:10:15Z</time>
      </trkpt>
      <trkpt lat="49.04809" lon="1.86544">
        <ele>101</ele>
        <time>2023-01-10T08:12:32Z</time>
      </trkpt>
      <trkpt lat="49.04833" lon="1.86494">
        <ele>103</ele>
        <time>2023-01-10T08:13:26Z</time>
      </trkpt>
      <trkpt lat="49.04855" lon="1.86424">
        <ele>104</ele>
        <time>2023-01-10T08:14:34Z</time>
      </trkpt>
      <trkpt lat="49.04904" lon="1.86233">
        <ele>107</ele>
        <time>2023-01-10T08:17:33Z</time>
      </trkpt>
      <trkpt lat="49.04932" lon="1.86073">
        <ele>109</ele>
        <time>2023-01-10T08:19:58Z</time>
      </trkpt>
      <trkpt lat="49.0495" lon="1.85932">
        <ele>111</ele>
        <time>2023-01-10T08:22:04Z</time>
      </trkpt>
      <trkpt lat="49.04978" lon="1.85797">
        <ele>113</ele>
        <time>2023-01-10T08:24:07Z</time>
      </trkpt>
      <trkpt lat="49.05" lon="1.85725">
        <ele>113</ele>
        <time>2023-01-10T08:25:17Z</time>
      </trkpt>
      <trkpt lat="49.05017" lon="1.85622">
        <ele>113</ele>
        <time>2023-01-10T08:26:50Z</time>
      </trkpt>
      <trkpt lat="49.05032" lon="1.85563">
        <ele>112</ele>
        <time>2023-01-10T08:27:45Z</time>
      </trkpt>
      <trkpt lat="49.0504" lon="1.85496">
        <ele>112</ele>
        <time>2023-01-10T08:28:45Z</time>
      </trkpt>
      <trkpt lat="49.05076" lon="1.85326">
        <ele>113</ele>
        <time>2023-01-10T08:31:21Z</time>
      </trkpt>
      <trkpt lat="49.051" lon="1.85247">
        <ele>114</ele>
        <time>2023-01-10T08:32:37Z</time>
      </trkpt>
      <trkpt lat="49.05119" lon="1.85165">
        <ele>116</ele>
        <time>2023-01-10T08:33:53Z</time>
      </trkpt>
      <trkpt lat="49.05128" lon="1.85145">
        <ele>117</ele>
        <time>2023-01-10T08:34:14Z</time>
      </trkpt>
      <trkpt lat="49.05125" lon="1.85143">
        <ele>117</ele>
        <time>2023-01-10T08:34:19Z</time>
      </trkpt>
      <trkpt lat="49.05154" lon="1.85062">
        <ele>119</ele>
        <time>2023-01-10T08:35:40Z</time>
      </trkpt>
      <trkpt lat="49.05178" lon="1.85033">
        <ele>120</ele>
        <time>2023-01-10T08:36:20Z</time>
      </trkpt>
      <trkpt lat="49.05222" lon="1.8496">
        <ele>125</ele>
        <time>2023-01-10T08:37:47Z</time>
      </trkpt>
      <trkpt lat="49.05255" lon="1.84922">
        <ele>128</ele>
        <time>2023-01-10T08:38:42Z</time>
      </trkpt>
      <trkpt lat="49.05273" lon="1.84879">
        <ele>131</ele>
        <time>2023-01-10T08:39:27Z</time>
      </trkpt>
      <trkpt lat="49.05288" lon="1.84812">
        <ele>134</ele>
        <time>2023-01-10T08:40:29Z</time>
      </trkpt>
      <trkpt lat="49.05288" lon="1.8478">
        <ele>136</ele>
        <time>2023-01-10T08:40:57Z</time>
      </trkpt>
      <trkpt lat="49.05294" lon="1.84763">
        <ele>137</ele>
        <time>2023-01-10T08:41:14Z</time>
      </trkpt>
      <trkpt lat="49.05306" lon="1.84687">
        <ele>141</ele>
        <time>2023-01-10T08:42:22Z</time>
      </trkpt>
      <trkpt lat="49.05303" lon="1.84656">
        <ele>143</ele>
        <time>2023-01-10T08:42:49Z</time>
      </trkpt>
      <trkpt lat="49.05297" lon="1.84645">
        <ele>144</ele>
        <time>2023-01-10T08:43:02Z</time>
      </trkpt>
      <trkpt lat="49.0531" lon="1.84611">
        <ele>145</ele>
        <time>2023-01-10T08:43:36Z</time>
      </trkpt>
      <trkpt lat="49.05341" lon="1.84615">
        <ele>144</ele>
        <time>2023-01-10T08:44:18Z</time>
      </trkpt>
      <trkpt lat="49.05346" lon="1.8462">
        <ele>144</ele>
        <time>2023-01-10T08:44:26Z</time>
      </trkpt>
      <trkpt lat="49.05351" lon="1.84612">
        <ele>144</ele>
        <time>2023-01-10T08:44:36Z</time>
      </trkpt>
      <trkpt lat="49.05364" lon="1.84613">
        <ele>145</ele>
        <time>2023-01-10T08:44:53Z</time>
      </trkpt>
      <trkpt lat="49.05392" lon="1.84646">
        <ele>143</ele>
        <time>2023-01-10T08:45:40Z</time>
      </trkpt>
      <trkpt lat="49.05434" lon="1.84668">
        <ele>144</ele>
        <time>2023-01-10T08:46:39Z</time>
      </trkpt>
      <trkpt lat="49.05444" lon="1.84679">
        <ele>144</ele>
        <time>2023-01-10T08:46:56Z</time>
      </trkpt>
      <trkpt lat="49.05462" lon="1.84685">
        <ele>146</ele>
        <time>2023-01-10T08:47:20Z</time>
      </trkpt>
      <trkpt lat="49.05497" lon="1.84689">
        <ele>150</ele>
        <time>2023-01-10T08:48:07Z</time>
      </trkpt>
      <trkpt lat="49.05521" lon="1.8471">
        <ele>151</ele>
        <time>2023-01-10T08:48:44Z</time>
      </trkpt>
      <trkpt lat="49.05531" lon="1.84709">
        <ele>152</ele>
        <time>2023-01-10T08:48:58Z</time>
      </trkpt>
      <trkpt lat="49.05564" lon="1.84719">
        <ele>154</ele>
        <time>2023-01-10T08:49:42Z</time>
      </trkpt>
      <trkpt lat="49.05591" lon="1.84715">
        <ele>156</ele>
        <time>2023-01-10T08:50:19Z</time>
      </trkpt>
      <trkpt lat="49.05633" lon="1.84754">
        <ele>154</ele>
        <time>2023-01-10T08:51:24Z</time>
      </trkpt>
      <trkpt lat="49.05652" lon="1.84766">
        <ele>153</ele>
        <time>2023-01-10T08:51:52Z</time>
      </trkpt>
      <trkpt lat="49.05664" lon="1.84761">
        <ele>153</ele>
        <time>2023-01-10T08:52:08Z</time>
      </trkpt>
      <trkpt lat="49.05679" lon="1.84762">
        <ele>152</ele>
        <time>2023-01-10T08:52:28Z</time>
      </trkpt>
      <trkpt lat="49.05736" lon="1.84779">
        <ele>151</ele>
        <time>2023-01-10T08:53:46Z</time>
      </trkpt>
      <trkpt lat="49.0575" lon="1.84775">
        <ele>151</ele>
        <time>2023-01-10T08:54:05Z</time>
      </trkpt>
      <trkpt lat="49.05799" lon="1.84748">
        <ele>152</ele>
        <time>2023-01-10T08:55:14Z</time>
      </trkpt>
      <trkpt lat="49.05822" lon="1.84716">
        <ele>156</ele>
        <time>2023-01-10T08:55:56Z</time>
      </trkpt>
      <trkpt lat="49.05848" lon="1.84706">
        <ele>158</ele>
        <time>2023-01-10T08:56:32Z</time>
      </trkpt>
      <trkpt lat="49.05867" lon="1.84682">
        <ele>163</ele>
        <time>2023-01-10T08:57:05Z</time>
      </trkpt>
      <trkpt lat="49.05894" lon="1.84672">
        <ele>166</ele>
        <time>2023-01-10T08:57:42Z</time>
      </trkpt>
      <trkpt lat="49.05912" lon="1.84675">
        <ele>168</ele>
        <time>2023-01-10T08:58:06Z</time>
      </trkpt>
      <trkpt lat="49.0591" lon="1.84667">
        <ele>168</ele>
        <time>2023-01-10T08:58:13Z</time>
      </trkpt>
      <trkpt lat="49.05919" lon="1.84677">
        <ele>168</ele>
        <time>2023-01-10T08:58:28Z</time>
      </trkpt>
      <trkpt lat="49.05933" lon="1.84675">
        <ele>169</ele>
        <time>2023-01-10T08:58:47Z</time>
      </trkpt>
      <trkpt lat="49.05972" lon="1.8471">
        <ele>166</ele>
        <time>2023-01-10T08:59:47Z</time>
      </trkpt>
      <trkpt lat="49.06005" lon="1.8472">
        <ele>167</ele>
        <time>2023-01-10T09:00:32Z</time>
      </trkpt>
      <trkpt lat="49.06021" lon="1.8472">
        <ele>166</ele>
        <time>2023-01-10T09:00:54Z</time>
      </trkpt>
      <trkpt lat="49.06028" lon="1.84705">
        <ele>167</ele>
        <time>2023-01-10T09:01:10Z</time>
      </trkpt>
      <trkpt lat="49.06055" lon="1.84683">
        <ele>167</ele>
        <time>2023-01-10T09:01:51Z</time>
      </trkpt>
      <trkpt lat="49.06074" lon="1.84679">
        <ele>167</ele>
        <time>2023-01-10T09:02:16Z</time>
      </trkpt>
      <trkpt lat="49.06103" lon="1.8466">
        <ele>166</ele>
        <time>2023-01-10T09:02:58Z</time>
      </trkpt>
      <trkpt lat="49.06126" lon="1.84635">
        <ele>166</ele>
        <time>2023-01-10T09:03:36Z</time>
      </trkpt>
      <trkpt lat="49.06135" lon="1.84614">
        <ele>167</ele>
        <time>2023-01-10T09:03:58Z</time>
      </trkpt>
      <trkpt lat="49.0615" lon="1.84611">
        <ele>165</ele>
        <time>2023-01-10T09:04:18Z</time>
      </trkpt>
      <trkpt lat="49.06161" lon="1.84603">
        <ele>164</ele>
        <time>2023-01-10T09:04:34Z</time>
      </trkpt>
      <trkpt lat="49.06189" lon="1.84552">
        <ele>165</ele>
        <time>2023-01-10T09:05:33Z</time>
      </trkpt>
      <trkpt lat="49.06186" lon="1.84541">
        <ele>165</ele>
        <time>2023-01-10T09:05:43Z</time>
      </trkpt>
      <trkpt lat="49.0618" lon="1.8454">
        <ele>166</ele>
        <time>2023-01-10T09:05:51Z</time>
      </trkpt>
      <trkpt lat="49.06184" lon="1.84553">
        <ele>165</ele>
        <time>2023-01-10T09:06:04Z</time>
      </trkpt>
      <trkpt lat="49.06199" lon="1.84537">
        <ele>165</ele>
        <time>2023-01-10T09:06:28Z</time>
      </trkpt>
      <trkpt lat="49.06198" lon="1.84534">
        <ele>165</ele>
        <time>2023-01-10T09:06:31Z</time>
      </trkpt>
      <trkpt lat="49.06184" lon="1.84559">
        <ele>165</ele>
        <time>2023-01-10T09:07:00Z</time>
      </trkpt>
      <trkpt lat="49.06165" lon="1.84579">
        <ele>164</ele>
        <time>2023-01-10T09:07:30Z</time>
      </trkpt>
      <trkpt lat="49.06153" lon="1.84578">
        <ele>166</ele>
        <time>2023-01-10T09:07:47Z</time>
      </trkpt>
      <trkpt lat="49.06152" lon="1.84581">
        <ele>166</ele>
        <time>2023-01-10T09:07:49Z</time>
      </trkpt>
      <trkpt lat="49.0616" lon="1.84565">
        <ele>166</ele>
        <time>2023-01-10T09:08:07Z</time>
      </trkpt>
      <trkpt lat="49.06171" lon="1.84556">
        <ele>165</ele>
        <time>2023-01-10T09:08:24Z</time>
      </trkpt>
      <trkpt lat="49.06183" lon="1.84538">
        <ele>166</ele>
        <time>2023-01-10T09:08:46Z</time>
      </trkpt>
      <trkpt lat="49.06194" lon="1.84514">
        <ele>165</ele>
        <time>2023-01-10T09:09:12Z</time>
      </trkpt>
      <trkpt lat="49.06199" lon="1.84487">
        <ele>166</ele>
        <time>2023-01-10T09:09:36Z</time>
      </trkpt>
      <trkpt lat="49.06197" lon="1.84454">
        <ele>167</ele>
        <time>2023-01-10T09:10:05Z</time>
      </trkpt>
      <trkpt lat="49.06214" lon="1.8441">
        <ele>167</ele>
        <time>2023-01-10T09:10:50Z</time>
      </trkpt>
      <trkpt lat="49.06207" lon="1.84379">
        <ele>167</ele>
        <time>2023-01-10T09:11:19Z</time>
      </trkpt>
      <trkpt lat="49.06208" lon="1.84336">
        <ele>167</ele>
        <time>2023-01-10T09:11:56Z</time>
      </trkpt>
      <trkpt lat="49.06235" lon="1.84262">
        <ele>164</ele>
        <time>2023-01-10T09:13:10Z</time>
      </trkpt>
      <trkpt lat="49.06231" lon="1.84295">
        <ele>165</ele>
        <time>2023-01-10T09:13:40Z</time>
      </trkpt>
      <trkpt lat="49.06222" lon="1.84301">
        <ele>165</ele>
        <time>2023-01-10T09:13:53Z</time>
      </trkpt>
      <trkpt lat="49.06208" lon="1.84323">
        <ele>166</ele>
        <time>2023-01-10T09:14:20Z</time>
      </trkpt>
      <trkpt lat="49.06206" lon="1.8435">
        <ele>167</ele>
        <time>2023-01-10T09:14:43Z</time>
      </trkpt>
      <trkpt lat="49.06199" lon="1.8437">
        <ele>168</ele>
        <time>2023-01-10T09:15:03Z</time>
      </trkpt>
      <trkpt lat="49.062" lon="1.84414">
        <ele>168</ele>
        <time>2023-01-10T09:15:42Z</time>
      </trkpt>
      <trkpt lat="49.06191" lon="1.84493">
        <ele>166</ele>
        <time>2023-01-10T09:16:52Z</time>
      </trkpt>
      <trkpt lat="49.06194" lon="1.84494">
        <ele>166</ele>
        <time>2023-01-10T09:16:56Z</time>
      </trkpt>
      <trkpt lat="49.06227" lon="1.84481">
        <ele>164</ele>
        <time>2023-01-10T09:17:41Z</time>
      </trkpt>
      <trkpt lat="49.06239" lon="1.84471">
        <ele>163</ele>
        <time>2023-01-10T09:18:00Z</time>
      </trkpt>
      <trkpt lat="49.06261" lon="1.84465">
        <ele>162</ele>
        <time>2023-01-10T09:18:29Z</time>
      </trkpt>
      <trkpt lat="49.06269" lon="1.84468">
        <ele>163</ele>
        <time>2023-01-10T09:18:40Z</time>
      </trkpt>
      <trkpt lat="49.06295" lon="1.84447">
        <ele>163</ele>
        <time>2023-01-10T09:19:20Z</time>
      </trkpt>
      <trkpt lat="49.0632" lon="1.84441">
        <ele>163</ele>
        <time>2023-01-10T09:19:53Z</time>
      </trkpt>
      <trkpt lat="49.06364" lon="1.84389">
        <ele>163</ele>
        <time>2023-01-10T09:21:08Z</time>
      </trkpt>
      <trkpt lat="49.06386" lon="1.84349">
        <ele>162</ele>
        <time>2023-01-10T09:21:53Z</time>
      </trkpt>
      <trkpt lat="49.06399" lon="1.84338">
        <ele>163</ele>
        <time>2023-01-10T09:22:13Z</time>
      </trkpt>
      <trkpt lat="49.06427" lon="1.84327">
        <ele>164</ele>
        <time>2023-01-10T09:22:52Z</time>
      </trkpt>
      <trkpt lat="49.06444" lon="1.84311">
        <ele>163</ele>
        <time>2023-01-10T09:23:18Z</time>
      </trkpt>
      <trkpt lat="49.06506" lon="1.84306">
        <ele>164</ele>
        <time>2023-01-10T09:24:41Z</time>
      </trkpt>
      <trkpt lat="49.06534" lon="1.84282">
        <ele>162</ele>
        <time>2023-01-10T09:25:24Z</time>
      </trkpt>
      <trkpt lat="49.0657" lon="1.84269">
        <ele>160</ele>
        <time>2023-01-10T09:26:14Z</time>
      </trkpt>
      <trkpt lat="49.06603" lon="1.84268">
        <ele>160</ele>
        <time>2023-01-10T09:26:58Z</time>
      </trkpt>
      <trkpt lat="49.0663" lon="1.84258">
        <ele>159</ele>
        <time>2023-01-10T09:27:35Z</time>
      </trkpt>
      <trkpt lat="49.06646" lon="1.84266">
        <ele>160</ele>
        <time>2023-01-10T09:27:57Z</time>
      </trkpt>
      <trkpt lat="49.06657" lon="1.84264">
        <ele>160</ele>
        <time>2023-01-10T09:28:12Z</time>
      </trkpt>
      <trkpt lat="49.06703" lon="1.84235">
        <ele>161</ele>
        <time>2023-01-10T09:29:18Z</time>
      </trkpt>
      <trkpt lat="49.0674" lon="1.84218">
        <ele>163</ele>
        <time>2023-01-10T09:30:10Z</time>
      </trkpt>
      <trkpt lat="49.0676" lon="1.84215">
        <ele>165</ele>
        <time>2023-01-10T09:30:37Z</time>
      </trkpt>
      <trkpt lat="49.06802" lon="1.84217">
        <ele>171</ele>
        <time>2023-01-10T09:31:33Z</time>
      </trkpt>
      <trkpt lat="49.06823" lon="1.84213">
        <ele>174</ele>
        <time>2023-01-10T09:32:01Z</time>
      </trkpt>
      <trkpt lat="49.06894" lon="1.84178">
        <ele>183</ele>
        <time>2023-01-10T09:33:41Z</time>
      </trkpt>
      <trkpt lat="49.06911" lon="1.84146">
        <ele>186</ele>
        <time>2023-01-10T09:34:17Z</time>
      </trkpt>
      <trkpt lat="49.06913" lon="1.84128">
        <ele>186</ele>
        <time>2023-01-10T09:34:33Z</time>
      </trkpt>
      <trkpt lat="49.06948" lon="1.84063">
        <ele>193</ele>
        <time>2023-01-10T09:35:46Z</time>
      </trkpt>
      <trkpt lat="49.06965" lon="1.83994">
        <ele>197</ele>
        <time>2023-01-10T09:36:51Z</time>
      </trkpt>
      <trkpt lat="49.06978" lon="1.8397">
        <ele>199</ele>
        <time>2023-01-10T09:37:18Z</time>
      </trkpt>
      <trkpt lat="49.06976" lon="1.83955">
        <ele>198</ele>
        <time>2023-01-10T09:37:31Z</time>
      </trkpt>
      <trkpt lat="49.06987" lon="1.83937">
        <ele>200</ele>
        <time>2023-01-10T09:37:53Z</time>
      </trkpt>
      <trkpt lat="49.06999" lon="1.83925">
        <ele>201</ele>
        <time>2023-01-10T09:38:12Z</time>
      </trkpt>
      <trkpt lat="49.07006" lon="1.8391">
        <ele>201</ele>
        <time>2023-01-10T09:38:28Z</time>
      </trkpt>
      <trkpt lat="49.07018" lon="1.83903">
        <ele>201</ele>
        <time>2023-01-10T09:38:45Z</time>
      </trkpt>
      <trkpt lat="49.07025" lon="1.83892">
        <ele>201</ele>
        <time>2023-01-10T09:38:58Z</time>
      </trkpt>
      <trkpt lat="49.07055" lon="1.83877">
        <ele>202</ele>
        <time>2023-01-10T09:39:41Z</time>
      </trkpt>
      <trkpt lat="49.07076" lon="1.83826">
        <ele>202</ele>
        <time>2023-01-10T09:40:33Z</time>
      </trkpt>
      <trkpt lat="49.07084" lon="1.83818">
        <ele>202</ele>
        <time>2023-01-10T09:40:46Z</time>
      </trkpt>
      <trkpt lat="49.071" lon="1.83814">
        <ele>202</ele>
        <time>2023-01-10T09:41:08Z</time>
      </trkpt>
      <trkpt lat="49.07119" lon="1.838">
        <ele>203</ele>
        <time>2023-01-10T09:41:36Z</time>
      </trkpt>
      <trkpt lat="49.0713" lon="1.83773">
        <ele>203</ele>
        <time>2023-01-10T09:42:04Z</time>
      </trkpt>
      <trkpt lat="49.07136" lon="1.83767">
        <ele>204</ele>
        <time>2023-01-10T09:42:13Z</time>
      </trkpt>
      <trkpt lat="49.07157" lon="1.83757">
        <ele>204</ele>
        <time>2023-01-10T09:42:43Z</time>
      </trkpt>
      <trkpt lat="49.07179" lon="1.83732">
        <ele>204</ele>
        <time>2023-01-10T09:43:19Z</time>
      </trkpt>
      <trkpt lat="49.07199" lon="1.83743">
        <ele>204</ele>
        <time>2023-01-10T09:43:47Z</time>
      </trkpt>
      <trkpt lat="49.07197" lon="1.83746">
        <ele>204</ele>
        <time>2023-01-10T09:43:51Z</time>
      </trkpt>
      <trkpt lat="49.07192" lon="1.83744">
        <ele>204</ele>
        <time>2023-01-10T09:43:58Z</time>
      </trkpt>
      <trkpt lat="49.07175" lon="1.83713">
        <ele>204</ele>
        <time>2023-01-10T09:44:33Z</time>
      </trkpt>
      <trkpt lat="49.07175" lon="1.83703">
        <ele>204</ele>
        <time>2023-01-10T09:44:42Z</time>
      </trkpt>
      <trkpt lat="49.07181" lon="1.83683">
        <ele>204</ele>
        <time>2023-01-10T09:45:01Z</time>
      </trkpt>
      <trkpt lat="49.07202" lon="1.83658">
        <ele>204</ele>
        <time>2023-01-10T09:45:37Z</time>
      </trkpt>
      <trkpt lat="49.07202" lon="1.83631">
        <ele>204</ele>
        <time>2023-01-10T09:46:01Z</time>
      </trkpt>
      <trkpt lat="49.07226" lon="1.83605">
        <ele>204</ele>
        <time>2023-01-10T09:46:40Z</time>
      </trkpt>
      <trkpt lat="49.07224" lon="1.83587">
        <ele>203</ele>
        <time>2023-01-10T09:46:56Z</time>
      </trkpt>
      <trkpt lat="49.07253" lon="1.83555">
        <ele>204</ele>
        <time>2023-01-10T09:47:44Z</time>
      </trkpt>
      <trkpt lat="49.0732" lon="1.83501">
        <ele>201</ele>
        <time>2023-01-10T09:49:25Z</time>
      </trkpt>
      <trkpt lat="49.07345" lon="1.83459">
        <ele>202</ele>
        <time>2023-01-10T09:50:14Z</time>
      </trkpt>
      <trkpt lat="49.07383" lon="1.8338">
        <ele>202</ele>
        <time>2023-01-10T09:51:40Z</time>
      </trkpt>
      <trkpt lat="49.07387" lon="1.83338">
        <ele>202</ele>
        <time>2023-01-10T09:52:17Z</time>
      </trkpt>
      <trkpt lat="49.07384" lon="1.83314">
        <ele>203</ele>
        <time>2023-01-10T09:52:38Z</time>
      </trkpt>
      <trkpt lat="49.07392" lon="1.83279">
        <ele>204</ele>
        <time>2023-01-10T09:53:11Z</time>
      </trkpt>
      <trkpt lat="49.07405" lon="1.83245">
        <ele>205</ele>
        <time>2023-01-10T09:53:45Z</time>
      </trkpt>
      <trkpt lat="49.07419" lon="1.83228">
        <ele>205</ele>
        <time>2023-01-10T09:54:09Z</time>
      </trkpt>
      <trkpt lat="49.07429" lon="1.83202">
        <ele>206</ele>
        <time>2023-01-10T09:54:35Z</time>
      </trkpt>
      <trkpt lat="49.07453" lon="1.8317">
        <ele>206</ele>
        <time>2023-01-10T09:55:18Z</time>
      </trkpt>
      <trkpt lat="49.07482" lon="1.83142">
        <ele>206</ele>
        <time>2023-01-10T09:56:04Z</time>
      </trkpt>
      <trkpt lat="49.07494" lon="1.83123">
        <ele>206</ele>
        <time>2023-01-10T09:56:27Z</time>
      </trkpt>
      <trkpt lat="49.07526" lon="1.83097">
        <ele>205</ele>
        <time>2023-01-10T09:57:15Z</time>
      </trkpt>
      <trkpt lat="49.07523" lon="1.83024">
        <ele>201</ele>
        <time>2023-01-10T09:58:19Z</time>
      </trkpt>
      <trkpt lat="49.07563" lon="1.82978">
        <ele>196</ele>
        <time>2023-01-10T09:59:26Z</time>
      </trkpt>
      <trkpt lat="49.07589" lon="1.82938">
        <ele>191</ele>
        <time>2023-01-10T10:00:15Z</time>
      </trkpt>
      <trkpt lat="49.07618" lon="1.82906">
        <ele>187</ele>
        <time>2023-01-10T10:01:03Z</time>
      </trkpt>
      <trkpt lat="49.07636" lon="1.82876">
        <ele>184</ele>
        <time>2023-01-10T10:01:39Z</time>
      </trkpt>
      <trkpt lat="49.0764" lon="1.82853">
        <ele>181</ele>
        <time>2023-01-10T10:01:59Z</time>
      </trkpt>
      <trkpt lat="49.07623" lon="1.82824">
        <ele>179</ele>
        <time>2023-01-10T10:02:33Z</time>
      </trkpt>
      <trkpt lat="49.0762" lon="1.82776">
        <ele>174</ele>
        <time>2023-01-10T10:03:16Z</time>
      </trkpt>
      <trkpt lat="49.07628" lon="1.82734">
        <ele>171</ele>
        <time>2023-01-10T10:03:54Z</time>
      </trkpt>
      <trkpt lat="49.07626" lon="1.82653">
        <ele>165</ele>
        <time>2023-01-10T10:05:05Z</time>
      </trkpt>
      <trkpt lat="49.07632" lon="1.82548">
        <ele>160</ele>
        <time>2023-01-10T10:06:37Z</time>
      </trkpt>
      <trkpt lat="49.0764" lon="1.82523">
        <ele>159</ele>
        <time>2023-01-10T10:07:01Z</time>
      </trkpt>
      <trkpt lat="49.0763" lon="1.82412">
        <ele>158</ele>
        <time>2023-01-10T10:08:39Z</time>
      </trkpt>
      <trkpt lat="49.07639" lon="1.82356">
        <ele>158</ele>
        <time>2023-01-10T10:09:29Z</time>
      </trkpt>
      <trkpt lat="49.07628" lon="1.8232">
        <ele>158</ele>
        <time>2023-01-10T10:10:04Z</time>
      </trkpt>
      <trkpt lat="49.07601" lon="1.82303">
        <ele>159</ele>
        <time>2023-01-10T10:10:43Z</time>
      </trkpt>
      <trkpt lat="49.07589" lon="1.82286">
        <ele>160</ele>
        <time>2023-01-10T10:11:05Z</time>
      </trkpt>
      <trkpt lat="49.07567" lon="1.82269">
        <ele>160</ele>
        <time>2023-01-10T10:11:38Z</time>
      </trkpt>
      <trkpt lat="49.07557" lon="1.82249">
        <ele>161</ele>
        <time>2023-01-10T10:12:00Z</time>
      </trkpt>
      <trkpt lat="49.0752" lon="1.82224">
        <ele>159</ele>
        <time>2023-01-10T10:12:54Z</time>
      </trkpt>
      <trkpt lat="49.07513" lon="1.82213">
        <ele>157</ele>
        <time>2023-01-10T10:13:07Z</time>
      </trkpt>
      <trkpt lat="49.07525" lon="1.82157">
        <ele>155</ele>
        <time>2023-01-10T10:13:59Z</time>
      </trkpt>
      <trkpt lat="49.07524" lon="1.82083">
        <ele>151</ele>
        <time>2023-01-10T10:15:04Z</time>
      </trkpt>
      <trkpt lat="49.07525" lon="1.82095">
        <ele>152</ele>
        <time>2023-01-10T10:15:14Z</time>
      </trkpt>
      <trkpt lat="49.07534" lon="1.8208">
        <ele>152</ele>
        <time>2023-01-10T10:15:32Z</time>
      </trkpt>
      <trkpt lat="49.07561" lon="1.82066">
        <ele>155</ele>
        <time>2023-01-10T10:16:10Z</time>
      </trkpt>
      <trkpt lat="49.07571" lon="1.82047">
        <ele>157</ele>
        <time>2023-01-10T10:16:31Z</time>
      </trkpt>
      <trkpt lat="49.0757" lon="1.82034">
        <ele>157</ele>
        <time>2023-01-10T10:16:43Z</time>
      </trkpt>
      <trkpt lat="49.07562" lon="1.82026">
        <ele>156</ele>
        <time>2023-01-10T10:16:55Z</time>
      </trkpt>
      <trkpt lat="49.07558" lon="1.81995">
        <ele>156</ele>
        <time>2023-01-10T10:17:23Z</time>
      </trkpt>
      <trkpt lat="49.07556" lon="1.81939">
        <ele>155</ele>
        <time>2023-01-10T10:18:12Z</time>
      </trkpt>
      <trkpt lat="49.07563" lon="1.81868">
        <ele>158</ele>
        <time>2023-01-10T10:19:15Z</time>
      </trkpt>
      <trkpt lat="49.07568" lon="1.81846">
        <ele>160</ele>
        <time>2023-01-10T10:19:35Z</time>
      </trkpt>
      <trkpt lat="49.07582" lon="1.8184">
        <ele>162</ele>
        <time>2023-01-10T10:19:55Z</time>
      </trkpt>
      <trkpt lat="49.07654" lon="1.81832">
        <ele>164</ele>
        <time>2023-01-10T10:21:31Z</time>
      </trkpt>
      <trkpt lat="49.07698" lon="1.81794">
        <ele>166</ele>
        <time>2023-01-10T10:22:38Z</time>
      </trkpt>
      <trkpt lat="49.07697" lon="1.81814">
        <ele>165</ele>
        <time>2023-01-10T10:22:56Z</time>
      </trkpt>
      <trkpt lat="49.07691" lon="1.8182">
        <ele>165</ele>
        <time>2023-01-10T10:23:05Z</time>
      </trkpt>
      <trkpt lat="49.07689" lon="1.81818">
        <ele>165</ele>
        <time>2023-01-10T10:23:09Z</time>
      </trkpt>
      <trkpt lat="49.07721" lon="1.81763">
        <ele>167</ele>
        <time>2023-01-10T10:24:13Z</time>
      </trkpt>
      <trkpt lat="49.0772" lon="1.8173">
        <ele>169</ele>
        <time>2023-01-10T10:24:42Z</time>
      </trkpt>
      <trkpt lat="49.0774" lon="1.81686">
        <ele>169</ele>
        <time>2023-01-10T10:25:29Z</time>
      </trkpt>
      <trkpt lat="49.07744" lon="1.81652">
        <ele>171</ele>
        <time>2023-01-10T10:25:59Z</time>
      </trkpt>
      <trkpt lat="49.07784" lon="1.81554">
        <ele>171</ele>
        <time>2023-01-10T10:27:40Z</time>
      </trkpt>
      <trkpt lat="49.07799" lon="1.81526">
        <ele>170</ele>
        <time>2023-01-10T10:28:11Z</time>
      </trkpt>
      <trkpt lat="49.07809" lon="1.81516">
        <ele>169</ele>
        <time>2023-01-10T10:28:27Z</time>
      </trkpt>
      <trkpt lat="49.07855" lon="1.81505">
        <ele>166</ele>
        <time>2023-01-10T10:29:30Z</time>
      </trkpt>
      <trkpt lat="49.07875" lon="1.81496">
        <ele>166</ele>
        <time>2023-01-10T10:29:57Z</time>
      </trkpt>
      <trkpt lat="49.07885" lon="1.8149">
        <ele>166</ele>
        <time>2023-01-10T10:30:12Z</time>
      </trkpt>
      <trkpt lat="49.07902" lon="1.8147">
        <ele>166</ele>
        <time>2023-01-10T10:30:40Z</time>
      </trkpt>
      <trkpt lat="49.07899" lon="1.81437">
        <ele>168</ele>
        <time>2023-01-10T10:31:09Z</time>
      </trkpt>
      <trkpt lat="49.07915" lon="1.81363">
        <ele>169</ele>
        <time>2023-01-10T10:32:18Z</time>
      </trkpt>
      <trkpt lat="49.07914" lon="1.81337">
        <ele>169</ele>
        <time>2023-01-10T10:32:40Z</time>
      </trkpt>
      <trkpt lat="49.07926" lon="1.81276">
        <ele>169</ele>
        <time>2023-01-10T10:33:36Z</time>
      </trkpt>
      <trkpt lat="49.07924" lon="1.81233">
        <ele>171</ele>
        <time>2023-01-10T10:34:14Z</time>
      </trkpt>
      <trkpt lat="49.07928" lon="1.81195">
        <ele>174</ele>
        <time>2023-01-10T10:34:47Z</time>
      </trkpt>
      <trkpt lat="49.0795" lon="1.81173">
        <ele>174</ele>
        <time>2023-01-10T10:35:22Z</time>
      </trkpt>
      <trkpt lat="49.07996" lon="1.81144">
        <ele>175</ele>
        <time>2023-01-10T10:36:29Z</time>
      </trkpt>
      <trkpt lat="49.08015" lon="1.81126">
        <ele>178</ele>
        <time>2023-01-10T10:36:59Z</time>
      </trkpt>
      <trkpt lat="49.08038" lon="1.81125">
        <ele>178</ele>
        <time>2023-01-10T10:37:29Z</time>
      </trkpt>
      <trkpt lat="49.08054" lon="1.81141">
        <ele>176</ele>
        <time>2023-01-10T10:37:55Z</time>
      </trkpt>
      <trkpt lat="49.0808" lon="1.81157">
        <ele>174</ele>
        <time>2023-01-10T10:38:32Z</time>
      </trkpt>
      <trkpt lat="49.08082" lon="1.81187">
        <ele>170</ele>
        <time>2023-01-10T10:38:59Z</time>
      </trkpt>
      <trkpt lat="49.08101" lon="1.81236">
        <ele>166</ele>
        <time>2023-01-10T10:39:48Z</time>
      </trkpt>
      <trkpt lat="49.08112" lon="1.81303">
        <ele>160</ele>
        <time>2023-01-10T10:40:49Z</time>
      </trkpt>
      <trkpt lat="49.08122" lon="1.81332">
        <ele>158</ele>
        <time>2023-01-10T10:41:17Z</time>
      </trkpt>
      <trkpt lat="49.08126" lon="1.81383">
        <ele>156</ele>
        <time>2023-01-10T10:42:02Z</time>
      </trkpt>
      <trkpt lat="49.08146" lon="1.81461">
        <ele>152</ele>
        <time>2023-01-10T10:43:16Z</time>
      </trkpt>
      <trkpt lat="49.08157" lon="1.81527">
        <ele>150</ele>
        <time>2023-01-10T10:44:15Z</time>
      </trkpt>
      <trkpt lat="49.08154" lon="1.81697">
        <ele>143</ele>
        <time>2023-01-10T10:46:44Z</time>
      </trkpt>
      <trkpt lat="49.08157" lon="1.8174">
        <ele>142</ele>
        <time>2023-01-10T10:47:22Z</time>
      </trkpt>
      <trkpt lat="49.08164" lon="1.81771">
        <ele>141</ele>
        <time>2023-01-10T10:47:50Z</time>
      </trkpt>
      <trkpt lat="49.08161" lon="1.81861">
        <ele>139</ele>
        <time>2023-01-10T10:49:09Z</time>
      </trkpt>
      <trkpt lat="49.08169" lon="1.81953">
        <ele>135</ele>
        <time>2023-01-10T10:50:30Z</time>
      </trkpt>
      <trkpt lat="49.0817" lon="1.82038">
        <ele>132</ele>
        <time>2023-01-10T10:51:44Z</time>
      </trkpt>
      <trkpt lat="49.08208" lon="1.8229">
        <ele>132</ele>
        <time>2023-01-10T10:55:30Z</time>
      </trkpt>
      <trkpt lat="49.08203" lon="1.82395">
        <ele>134</ele>
        <time>2023-01-10T10:57:02Z</time>
      </trkpt>
      <trkpt lat="49.08213" lon="1.82445">
        <ele>133</ele>
        <time>2023-01-10T10:57:48Z</time>
      </trkpt>
      <trkpt lat="49.08216" lon="1.82554">
        <ele>131</ele>
        <time>2023-01-10T10:59:23Z</time>
      </trkpt>
      <trkpt lat="49.08212" lon="1.82589">
        <ele>131</ele>
        <time>2023-01-10T10:59:55Z</time>
      </trkpt>
      <trkpt lat="49.08222" lon="1.82653">
        <ele>130</ele>
        <time>2023-01-10T11:00:52Z</time>
      </trkpt>
      <trkpt lat="49.08231" lon="1.82817">
        <ele>130</ele>
        <time>2023-01-10T11:03:16Z</time>
      </trkpt>
      <trkpt lat="49.08231" lon="1.82872">
        <ele>130</ele>
        <time>2023-01-10T11:04:04Z</time>
      </trkpt>
      <trkpt lat="49.08223" lon="1.82867">
        <ele>130</ele>
        <time>2023-01-10T11:04:15Z</time>
      </trkpt>
      <trkpt lat="49.08223" lon="1.82872">
        <ele>130</ele>
        <time>2023-01-10T11:04:20Z</time>
      </trkpt>
      <trkpt lat="49.08221" lon="1.82863">
        <ele>130</ele>
        <time>2023-01-10T11:04:28Z</time>
      </trkpt>
      <trkpt lat="49.08226" lon="1.8286">
        <ele>130</ele>
        <time>2023-01-10T11:04:35Z</time>
      </trkpt>
      <trkpt lat="49.08253" lon="1.82881">
        <ele>129</ele>
        <time>2023-01-10T11:05:16Z</time>
      </trkpt>
      <trkpt lat="49.0828" lon="1.82886">
        <ele>128</ele>
        <time>2023-01-10T11:05:52Z</time>
      </trkpt>
      <trkpt lat="49.08322" lon="1.82913">
        <ele>127</ele>
        <time>2023-01-10T11:06:53Z</time>
      </trkpt>
      <trkpt lat="49.08336" lon="1.82928">
        <ele>127</ele>
        <time>2023-01-10T11:07:16Z</time>
      </trkpt>
      <trkpt lat="49.08366" lon="1.82949">
        <ele>126</ele>
        <time>2023-01-10T11:08:00Z</time>
      </trkpt>
      <trkpt lat="49.08384" lon="1.82954">
        <ele>125</ele>
        <time>2023-01-10T11:08:24Z</time>
      </trkpt>
      <trkpt lat="49.08419" lon="1.82977">
        <ele>125</ele>
        <time>2023-01-10T11:09:15Z</time>
      </trkpt>
      <trkpt lat="49.08439" lon="1.82984">
        <ele>125</ele>
        <time>2023-01-10T11:09:42Z</time>
      </trkpt>
      <trkpt lat="49.08531" lon="1.83008">
        <ele>124</ele>
        <time>2023-01-10T11:11:47Z</time>
      </trkpt>
      <trkpt lat="49.08597" lon="1.83017">
        <ele>124</ele>
        <time>2023-01-10T11:13:15Z</time>
      </trkpt>
      <trkpt lat="49.08613" lon="1.83015">
        <ele>124</ele>
        <time>2023-01-10T11:13:37Z</time>
      </trkpt>
      <trkpt lat="49.08688" lon="1.83032">
        <ele>123</ele>
        <time>2023-01-10T11:15:18Z</time>
      </trkpt>
      <trkpt lat="49.08707" lon="1.8303">
        <ele>123</ele>
        <time>2023-01-10T11:15:43Z</time>
      </trkpt>
      <trkpt lat="49.08796" lon="1.83048">
        <ele>122</ele>
        <time>2023-01-10T11:17:43Z</time>
      </trkpt>
      <trkpt lat="49.08928" lon="1.83112">
        <ele>120</ele>
        <time>2023-01-10T11:20:48Z</time>
      </trkpt>
      <trkpt lat="49.09108" lon="1.83222">
        <ele>123</ele>
        <time>2023-01-10T11:25:07Z</time>
      </trkpt>
      <trkpt lat="49.09153" lon="1.83237">
        <ele>125</ele>
        <time>2023-01-10T11:26:08Z</time>
      </trkpt>
      <trkpt lat="49.09183" lon="1.83258">
        <ele>126</ele>
        <time>2023-01-10T11:26:52Z</time>
      </trkpt>
      <trkpt lat="49.09217" lon="1.83268">
        <ele>127</ele>
        <time>2023-01-10T11:27:38Z</time>
      </trkpt>
      <trkpt lat="49.09269" lon="1.83295">
        <ele>128</ele>
        <time>2023-01-10T11:28:52Z</time>
      </trkpt>
      <trkpt lat="49.09304" lon="1.83307">
        <ele>129</ele>
        <time>2023-01-10T11:29:40Z</time>
      </trkpt>
      <trkpt lat="49.09329" lon="1.83308">
        <ele>130</ele>
        <time>2023-01-10T11:30:13Z</time>
      </trkpt>
      <trkpt lat="49.09384" lon="1.83324">
        <ele>130</ele>
        <time>2023-01-10T11:31:28Z</time>
      </trkpt>
      <trkpt lat="49.09417" lon="1.83322">
        <ele>130</ele>
        <time>2023-01-10T11:32:12Z</time>
      </trkpt>
      <trkpt lat="49.09448" lon="1.83329">
        <ele>129</ele>
        <time>2023-01-10T11:32:54Z</time>
      </trkpt>
      <trkpt lat="49.09502" lon="1.83326">
        <ele>128</ele>
        <time>2023-01-10T11:34:06Z</time>
      </trkpt>
      <trkpt lat="49.09566" lon="1.83334">
        <ele>126</ele>
        <time>2023-01-10T11:35:31Z</time>
      </trkpt>
      <trkpt lat="49.0959" lon="1.83327">
        <ele>125</ele>
        <time>2023-01-10T11:36:04Z</time>
      </trkpt>
      <trkpt lat="49.09635" lon="1.8333">
        <ele>124</ele>
        <time>2023-01-10T11:37:04Z</time>
      </trkpt>
      <trkpt lat="49.09694" lon="1.83325">
        <ele>124</ele>
        <time>2023-01-10T11:38:23Z</time>
      </trkpt>
      <trkpt lat="49.09729" lon="1.83335">
        <ele>123</ele>
        <time>2023-01-10T11:39:10Z</time>
      </trkpt>
      <trkpt lat="49.09789" lon="1.83371">
        <ele>123</ele>
        <time>2023-01-10T11:40:36Z</time>
      </trkpt>
      <trkpt lat="49.09852" lon="1.83415">
        <ele>122</ele>
        <time>2023-01-10T11:42:09Z</time>
      </trkpt>
      <trkpt lat="49.09897" lon="1.8344">
        <ele>123</ele>
        <time>2023-01-10T11:43:13Z</time>
      </trkpt>
      <trkpt lat="49.09949" lon="1.83487">
        <ele>123</ele>
        <time>2023-01-10T11:44:33Z</time>
      </trkpt>
      <trkpt lat="49.09978" lon="1.83534">
        <ele>123</ele>
        <time>2023-01-10T11:45:30Z</time>
      </trkpt>
      <trkpt lat="49.09987" lon="1.83557">
        <ele>123</ele>
        <time>2023-01-10T11:45:53Z</time>
      </trkpt>
      <trkpt lat="49.10033" lon="1.836">
        <ele>123</ele>
        <time>2023-01-10T11:47:05Z</time>
      </trkpt>
      <trkpt lat="49.10046" lon="1.83617">
        <ele>123</ele>
        <time>2023-01-10T11:47:28Z</time>
      </trkpt>
      <trkpt lat="49.10071" lon="1.83637">
        <ele>123</ele>
        <time>2023-01-10T11:48:06Z</time>
      </trkpt>
      <trkpt lat="49.10111" lon="1.83653">
        <ele>123</ele>
        <time>2023-01-10T11:49:01Z</time>
      </trkpt>
      <trkpt lat="49.1015" lon="1.83635">
        <ele>124</ele>
        <time>2023-01-10T11:49:55Z</time>
      </trkpt>
      <trkpt lat="49.10181" lon="1.83628">
        <ele>123</ele>
        <time>2023-01-10T11:50:37Z</time>
      </trkpt>
      <trkpt lat="49.10189" lon="1.8362">
        <ele>123</ele>
        <time>2023-01-10T11:50:50Z</time>
      </trkpt>
      <trkpt lat="49.1021" lon="1.83581">
        <ele>124</ele>
        <time>2023-01-10T11:51:34Z</time>
      </trkpt>
      <trkpt lat="49.10209" lon="1.83555">
        <ele>124</ele>
        <time>2023-01-10T11:51:57Z</time>
      </trkpt>
      <trkpt lat="49.10212" lon="1.83547">
        <ele>124</ele>
        <time>2023-01-10T11:52:05Z</time>
      </trkpt>
      <trkpt lat="49.10247" lon="1.8355">
        <ele>123</ele>
        <time>2023-01-10T11:52:52Z</time>
      </trkpt>
      <trkpt lat="49.10267" lon="1.83533">
        <ele>123</ele>
        <time>2023-01-10T11:53:22Z</time>
      </trkpt>
      <trkpt lat="49.10269" lon="1.83543">
        <ele>123</ele>
        <time>2023-01-10T11:53:31Z</time>
      </trkpt>
      <trkpt lat="49.10261" lon="1.83537">
        <ele>123</ele>
        <time>2023-01-10T11:53:43Z</time>
      </trkpt>
      <trkpt lat="49.10257" lon="1.83546">
        <ele>123</ele>
        <time>2023-01-10T11:53:53Z</time>
      </trkpt>
      <trkpt lat="49.10256" lon="1.83539">
        <ele>123</ele>
        <time>2023-01-10T11:53:59Z</time>
      </trkpt>
      <trkpt lat="49.10261" lon="1.83535">
        <ele>123</ele>
        <time>2023-01-10T11:54:06Z</time>
      </trkpt>
      <trkpt lat="49.1026" lon="1.83539">
        <ele>123</ele>
        <time>2023-01-10T11:54:10Z</time>
      </trkpt>
      <trkpt lat="49.10262" lon="1.83531">
        <ele>123</ele>
        <time>2023-01-10T11:54:18Z</time>
      </trkpt>
      <trkpt lat="49.10254" lon="1.83541">
        <ele>123</ele>
        <time>2023-01-10T11:54:31Z</time>
      </trkpt>
      <trkpt lat="49.10259" lon="1.83535">
        <ele>123</ele>
        <time>2023-01-10T11:54:40Z</time>
      </trkpt>
      <trkpt lat="49.10261" lon="1.83544">
        <ele>123</ele>
        <time>2023-01-10T11:54:48Z</time>
      </trkpt>
      <trkpt lat="49.10254" lon="1.83548">
        <ele>123</ele>
        <time>2023-01-10T11:54:58Z</time>
      </trkpt>
      <trkpt lat="49.1025" lon="1.83558">
        <ele>123</ele>
        <time>2023-01-10T11:55:08Z</time>
      </trkpt>
      <trkpt lat="49.10212" lon="1.83546">
        <ele>124</ele>
        <time>2023-01-10T11:56:00Z</time>
      </trkpt>
      <trkpt lat="49.10207" lon="1.83557">
        <ele>124</ele>
        <time>2023-01-10T11:56:12Z</time>
      </trkpt>
      <trkpt lat="49.10207" lon="1.83586">
        <ele>124</ele>
        <time>2023-01-10T11:56:37Z</time>
      </trkpt>
      <trkpt lat="49.10184" lon="1.83627">
        <ele>123</ele>
        <time>2023-01-10T11:57:24Z</time>
      </trkpt>
      <trkpt lat="49.10166" lon="1.83637">
        <ele>124</ele>
        <time>2023-01-10T11:57:50Z</time>
      </trkpt>
      <trkpt lat="49.10153" lon="1.83637">
        <ele>124</ele>
        <time>2023-01-10T11:58:07Z</time>
      </trkpt>
      <trkpt lat="49.1012" lon="1.83651">
        <ele>123</ele>
        <time>2023-01-10T11:58:53Z</time>
      </trkpt>
      <trkpt lat="49.10103" lon="1.83653">
        <ele>123</ele>
        <time>2023-01-10T11:59:16Z</time>
      </trkpt>
      <trkpt lat="49.10085" lon="1.83645">
        <ele>123</ele>
        <time>2023-01-10T11:59:41Z</time>
      </trkpt>
      <trkpt lat="49.10016" lon="1.83594">
        <ele>123</ele>
        <time>2023-01-10T12:01:23Z</time>
      </trkpt>
      <trkpt lat="49.09997" lon="1.83573">
        <ele>123</ele>
        <time>2023-01-10T12:01:54Z</time>
      </trkpt>
      <trkpt lat="49.09985" lon="1.83581">
        <ele>123</ele>
        <time>2023-01-10T12:02:12Z</time>
      </trkpt>
      <trkpt lat="49.09964" lon="1.83612">
        <ele>124</ele>
        <time>2023-01-10T12:02:51Z</time>
      </trkpt>
      <trkpt lat="49.09917" lon="1.83698">
        <ele>126</ele>
        <time>2023-01-10T12:04:29Z</time>
      </trkpt>
      <trkpt lat="49.09846" lon="1.8381">
        <ele>125</ele>
        <time>2023-01-10T12:06:45Z</time>
      </trkpt>
      <trkpt lat="49.09739" lon="1.83997">
        <ele>122</ele>
        <time>2023-01-10T12:10:22Z</time>
      </trkpt>
      <trkpt lat="49.09687" lon="1.84094">
        <ele>121</ele>
        <time>2023-01-10T12:12:12Z</time>
      </trkpt>
      <trkpt lat="49.09678" lon="1.84125">
        <ele>121</ele>
        <time>2023-01-10T12:12:41Z</time>
      </trkpt>
      <trkpt lat="49.09617" lon="1.8425">
        <ele>120</ele>
        <time>2023-01-10T12:14:57Z</time>
      </trkpt>
      <trkpt lat="49.09563" lon="1.84354">
        <ele>120</ele>
        <time>2023-01-10T12:16:53Z</time>
      </trkpt>
      <trkpt lat="49.09535" lon="1.84398">
        <ele>122</ele>
        <time>2023-01-10T12:17:47Z</time>
      </trkpt>
      <trkpt lat="49.09515" lon="1.84447">
        <ele>125</ele>
        <time>2023-01-10T12:18:37Z</time>
      </trkpt>
      <trkpt lat="49.09484" lon="1.84483">
        <ele>126</ele>
        <time>2023-01-10T12:19:29Z</time>
      </trkpt>
      <trkpt lat="49.09463" lon="1.84515">
        <ele>126</ele>
        <time>2023-01-10T12:20:09Z</time>
      </trkpt>
      <trkpt lat="49.09446" lon="1.84529">
        <ele>125</ele>
        <time>2023-01-10T12:20:35Z</time>
      </trkpt>
      <trkpt lat="49.09425" lon="1.84561">
        <ele>124</ele>
        <time>2023-01-10T12:21:14Z</time>
      </trkpt>
      <trkpt lat="49.09401" lon="1.84619">
        <ele>124</ele>
        <time>2023-01-10T12:22:14Z</time>
      </trkpt>
      <trkpt lat="49.09346" lon="1.84826">
        <ele>117</ele>
        <time>2023-01-10T12:25:30Z</time>
      </trkpt>
      <trkpt lat="49.09316" lon="1.84919">
        <ele>111</ele>
        <time>2023-01-10T12:27:00Z</time>
      </trkpt>
      <trkpt lat="49.09294" lon="1.84971">
        <ele>110</ele>
        <time>2023-01-10T12:27:54Z</time>
      </trkpt>
      <trkpt lat="49.09268" lon="1.85074">
        <ele>108</ele>
        <time>2023-01-10T12:29:31Z</time>
      </trkpt>
      <trkpt lat="49.09253" lon="1.85089">
        <ele>107</ele>
        <time>2023-01-10T12:29:55Z</time>
      </trkpt>
      <trkpt lat="49.09237" lon="1.85117">
        <ele>107</ele>
        <time>2023-01-10T12:30:27Z</time>
      </trkpt>
      <trkpt lat="49.09227" lon="1.85157">
        <ele>108</ele>
        <time>2023-01-10T12:31:04Z</time>
      </trkpt>
      <trkpt lat="49.09203" lon="1.85213">
        <ele>108</ele>
        <time>2023-01-10T12:32:03Z</time>
      </trkpt>
      <trkpt lat="49.09171" lon="1.85305">
        <ele>108</ele>
        <time>2023-01-10T12:33:34Z</time>
      </trkpt>
      <trkpt lat="49.09131" lon="1.85395">
        <ele>108</ele>
        <time>2023-01-10T12:35:09Z</time>
      </trkpt>
      <trkpt lat="49.09103" lon="1.85448">
        <ele>107</ele>
        <time>2023-01-10T12:36:09Z</time>
      </trkpt>
      <trkpt lat="49.0906" lon="1.85516">
        <ele>106</ele>
        <time>2023-01-10T12:37:31Z</time>
      </trkpt>
      <trkpt lat="49.09019" lon="1.85572">
        <ele>105</ele>
        <time>2023-01-10T12:38:45Z</time>
      </trkpt>
      <trkpt lat="49.08984" lon="1.85638">
        <ele>106</ele>
        <time>2023-01-10T12:39:59Z</time>
      </trkpt>
      <trkpt lat="49.08963" lon="1.85661">
        <ele>105</ele>
        <time>2023-01-10T12:40:33Z</time>
      </trkpt>
      <trkpt lat="49.08937" lon="1.85708">
        <ele>106</ele>
        <time>2023-01-10T12:41:27Z</time>
      </trkpt>
      <trkpt lat="49.0892" lon="1.85725">
        <ele>106</ele>
        <time>2023-01-10T12:41:54Z</time>
      </trkpt>
      <trkpt lat="49.08898" lon="1.85757">
        <ele>106</ele>
        <time>2023-01-10T12:42:35Z</time>
      </trkpt>
      <trkpt lat="49.08864" lon="1.85784">
        <ele>106</ele>
        <time>2023-01-10T12:43:26Z</time>
      </trkpt>
      <trkpt lat="49.08832" lon="1.8582">
        <ele>105</ele>
        <time>2023-01-10T12:44:19Z</time>
      </trkpt>
      <trkpt lat="49.08795" lon="1.8588">
        <ele>104</ele>
        <time>2023-01-10T12:45:31Z</time>
      </trkpt>
      <trkpt lat="49.08741" lon="1.86031">
        <ele>101</ele>
        <time>2023-01-10T12:48:01Z</time>
      </trkpt>
      <trkpt lat="49.08719" lon="1.86115">
        <ele>101</ele>
        <time>2023-01-10T12:49:20Z</time>
      </trkpt>
      <trkpt lat="49.087" lon="1.86146">
        <ele>99</ele>
        <time>2023-01-10T12:49:57Z</time>
      </trkpt>
      <trkpt lat="49.08705" lon="1.86319">
        <ele>100</ele>
        <time>2023-01-10T12:52:29Z</time>
      </trkpt>
      <trkpt lat="49.08711" lon="1.86389">
        <ele>100</ele>
        <time>2023-01-10T12:53:30Z</time>
      </trkpt>
      <trkpt lat="49.087" lon="1.86505">
        <ele>100</ele>
        <time>2023-01-10T12:55:13Z</time>
      </trkpt>
      <trkpt lat="49.08701" lon="1.86588">
        <ele>99</ele>
        <time>2023-01-10T12:56:25Z</time>
      </trkpt>
      <trkpt lat="49.08704" lon="1.86619">
        <ele>99</ele>
        <time>2023-01-10T12:56:53Z</time>
      </trkpt>
      <trkpt lat="49.08722" lon="1.86695">
        <ele>98</ele>
        <time>2023-01-10T12:58:03Z</time>
      </trkpt>
      <trkpt lat="49.08737" lon="1.86742">
        <ele>98</ele>
        <time>2023-01-10T12:58:49Z</time>
      </trkpt>
      <trkpt lat="49.08756" lon="1.86784">
        <ele>97</ele>
        <time>2023-01-10T12:59:34Z</time>
      </trkpt>
      <trkpt lat="49.08755" lon="1.8681">
        <ele>96</ele>
        <time>2023-01-10T12:59:57Z</time>
      </trkpt>
      <trkpt lat="49.08766" lon="1.86886">
        <ele>94</ele>
        <time>2023-01-10T13:01:05Z</time>
      </trkpt>
      <trkpt lat="49.08759" lon="1.86915">
        <ele>92</ele>
        <time>2023-01-10T13:01:32Z</time>
      </trkpt>
      <trkpt lat="49.08725" lon="1.86941">
        <ele>91</ele>
        <time>2023-01-10T13:02:22Z</time>
      </trkpt>
      <trkpt lat="49.08705" lon="1.86946">
        <ele>91</ele>
        <time>2023-01-10T13:02:49Z</time>
      </trkpt>
      <trkpt lat="49.0871" lon="1.8695">
        <ele>91</ele>
        <time>2023-01-10T13:02:57Z</time>
      </trkpt>
      <trkpt lat="49.08695" lon="1.86963">
        <ele>91</ele>
        <time>2023-01-10T13:03:20Z</time>
      </trkpt>
      <trkpt lat="49.08692" lon="1.86971">
        <ele>90</ele>
        <time>2023-01-10T13:03:28Z</time>
      </trkpt>
      <trkpt lat="49.08711" lon="1.87087">
        <ele>89</ele>
        <time>2023-01-10T13:05:12Z</time>
      </trkpt>
      <trkpt lat="49.08709" lon="1.87093">
        <ele>89</ele>
        <time>2023-01-10T13:05:18Z</time>
      </trkpt>
      <trkpt lat="49.08702" lon="1.87096">
        <ele>89</ele>
        <time>2023-01-10T13:05:28Z</time>
      </trkpt>
      <trkpt lat="49.08705" lon="1.87092">
        <ele>89</ele>
        <time>2023-01-10T13:05:33Z</time>
      </trkpt>
      <trkpt lat="49.08726" lon="1.87124">
        <ele>89</ele>
        <time>2023-01-10T13:06:13Z</time>
      </trkpt>
      <trkpt lat="49.08721" lon="1.87133">
        <ele>89</ele>
        <time>2023-01-10T13:06:23Z</time>
      </trkpt>
      <trkpt lat="49.08731" lon="1.87124">
        <ele>89</ele>
        <time>2023-01-10T13:06:39Z</time>
      </trkpt>
      <trkpt lat="49.08744" lon="1.87131">
        <ele>90</ele>
        <time>2023-01-10T13:06:57Z</time>
      </trkpt>
      <trkpt lat="49.08773" lon="1.87188">
        <ele>90</ele>
        <time>2023-01-10T13:08:00Z</time>
      </trkpt>
      <trkpt lat="49.08742" lon="1.87259">
        <ele>90</ele>
        <time>2023-01-10T13:09:15Z</time>
      </trkpt>
      <trkpt lat="49.08734" lon="1.87291">
        <ele>89</ele>
        <time>2023-01-10T13:09:45Z</time>
      </trkpt>
      <trkpt lat="49.0875" lon="1.87308">
        <ele>89</ele>
        <time>2023-01-10T13:10:11Z</time>
      </trkpt>
      <trkpt lat="49.08772" lon="1.87323">
        <ele>89</ele>
        <time>2023-01-10T13:10:43Z</time>
      </trkpt>
      <trkpt lat="49.08797" lon="1.87353">
        <ele>89</ele>
        <time>2023-01-10T13:11:25Z</time>
      </trkpt>
      <trkpt lat="49.08817" lon="1.87385">
        <ele>89</ele>
        <time>2023-01-10T13:12:04Z</time>
      </trkpt>
      <trkpt lat="49.08838" lon="1.87401">
        <ele>89</ele>
        <time>2023-01-10T13:12:35Z</time>
      </trkpt>
      <trkpt lat="49.08865" lon="1.87438">
        <ele>90</ele>
        <time>2023-01-10T13:13:24Z</time>
      </trkpt>
      <trkpt lat="49.08876" lon="1.87447">
        <ele>91</ele>
        <time>2023-01-10T13:13:40Z</time>
      </trkpt>
      <trkpt lat="49.08915" lon="1.87499">
        <ele>92</ele>
        <time>2023-01-10T13:14:49Z</time>
      </trkpt>
      <trkpt lat="49.08937" lon="1.8754">
        <ele>92</ele>
        <time>2023-01-10T13:15:36Z</time>
      </trkpt>
      <trkpt lat="49.09008" lon="1.87642">
        <ele>92</ele>
        <time>2023-01-10T13:17:46Z</time>
      </trkpt>
      <trkpt lat="49.09031" lon="1.87693">
        <ele>92</ele>
        <time>2023-01-10T13:18:40Z</time>
      </trkpt>
      <trkpt lat="49.09049" lon="1.87757">
        <ele>92</ele>
        <time>2023-01-10T13:19:41Z</time>
      </trkpt>
      <trkpt lat="49.0906" lon="1.87856">
        <ele>92</ele>
        <time>2023-01-10T13:21:09Z</time>
      </trkpt>
      <trkpt lat="49.09067" lon="1.87864">
        <ele>92</ele>
        <time>2023-01-10T13:21:20Z</time>
      </trkpt>
      <trkpt lat="49.09112" lon="1.87885">
        <ele>93</ele>
        <time>2023-01-10T13:22:23Z</time>
      </trkpt>
      <trkpt lat="49.09126" lon="1.87901">
        <ele>93</ele>
        <time>2023-01-10T13:22:46Z</time>
      </trkpt>
      <trkpt lat="49.09146" lon="1.87913">
        <ele>94</ele>
        <time>2023-01-10T13:23:15Z</time>
      </trkpt>
      <trkpt lat="49.09154" lon="1.87928">
        <ele>94</ele>
        <time>2023-01-10T13:23:32Z</time>
      </trkpt>
      <trkpt lat="49.09089" lon="1.88111">
        <ele>93</ele>
        <time>2023-01-10T13:26:34Z</time>
      </trkpt>
      <trkpt lat="49.09082" lon="1.88148">
        <ele>92</ele>
        <time>2023-01-10T13:27:08Z</time>
      </trkpt>
      <trkpt lat="49.09048" lon="1.88245">
        <ele>90</ele>
        <time>2023-01-10T13:28:44Z</time>
      </trkpt>
      <trkpt lat="49.09044" lon="1.88274">
        <ele>90</ele>
        <time>2023-01-10T13:29:10Z</time>
      </trkpt>
      <trkpt lat="49.09006" lon="1.88394">
        <ele>89</ele>
        <time>2023-01-10T13:31:06Z</time>
      </trkpt>
      <trkpt lat="49.08994" lon="1.88451">
        <ele>88</ele>
        <time>2023-01-10T13:31:58Z</time>
      </trkpt>
      <trkpt lat="49.08978" lon="1.88493">
        <ele>87</ele>
        <time>2023-01-10T13:32:41Z</time>
      </trkpt>
      <trkpt lat="49.08974" lon="1.88546">
        <ele>87</ele>
        <time>2023-01-10T13:33:28Z</time>
      </trkpt>
      <trkpt lat="49.08956" lon="1.88643">
        <ele>86</ele>
        <time>2023-01-10T13:34:56Z</time>
      </trkpt>
      <trkpt lat="49.08952" lon="1.88695">
        <ele>87</ele>
        <time>2023-01-10T13:35:41Z</time>
      </trkpt>
      <trkpt lat="49.08935" lon="1.88774">
        <ele>87</ele>
        <time>2023-01-10T13:36:54Z</time>
      </trkpt>
      <trkpt lat="49.08914" lon="1.88925">
        <ele>85</ele>
        <time>2023-01-10T13:39:09Z</time>
      </trkpt>
      <trkpt lat="49.08859" lon="1.89065">
        <ele>85</ele>
        <time>2023-01-10T13:41:32Z</time>
      </trkpt>
      <trkpt lat="49.08843" lon="1.89094">
        <ele>85</ele>
        <time>2023-01-10T13:42:05Z</time>
      </trkpt>
      <trkpt lat="49.08833" lon="1.89089">
        <ele>85</ele>
        <time>2023-01-10T13:42:19Z</time>
      </trkpt>
      <trkpt lat="49.08838" lon="1.89095">
        <ele>85</ele>
        <time>2023-01-10T13:42:27Z</time>
      </trkpt>
      <trkpt lat="49.08836" lon="1.89109">
        <ele>86</ele>
        <time>2023-01-10T13:42:40Z</time>
      </trkpt>
      <trkpt lat="49.08811" lon="1.89154">
        <ele>87</ele>
        <time>2023-01-10T13:43:31Z</time>
      </trkpt>
      <trkpt lat="49.08777" lon="1.89238">
        <ele>88</ele>
        <time>2023-01-10T13:44:58Z</time>
      </trkpt>
      <trkpt lat="49.08757" lon="1.8927">
        <ele>88</ele>
        <time>2023-01-10T13:45:36Z</time>
      </trkpt>
      <trkpt lat="49.08709" lon="1.89388">
        <ele>85</ele>
        <time>2023-01-10T13:47:38Z</time>
      </trkpt>
      <trkpt lat="49.08695" lon="1.89465">
        <ele>83</ele>
        <time>2023-01-10T13:48:48Z</time>
      </trkpt>
      <trkpt lat="49.08685" lon="1.89492">
        <ele>82</ele>
        <time>2023-01-10T13:49:15Z</time>
      </trkpt>
      <trkpt lat="49.08676" lon="1.89536">
        <ele>81</ele>
        <time>2023-01-10T13:49:55Z</time>
      </trkpt>
      <trkpt lat="49.08674" lon="1.89596">
        <ele>79</ele>
        <time>2023-01-10T13:50:48Z</time>
      </trkpt>
      <trkpt lat="49.08683" lon="1.8955">
        <ele>81</ele>
        <time>2023-01-10T13:51:29Z</time>
      </trkpt>
      <trkpt lat="49.08683" lon="1.89519">
        <ele>82</ele>
        <time>2023-01-10T13:51:57Z</time>
      </trkpt>
      <trkpt lat="49.08679" lon="1.89577">
        <ele>80</ele>
        <time>2023-01-10T13:52:48Z</time>
      </trkpt>
      <trkpt lat="49.0867" lon="1.8961">
        <ele>79</ele>
        <time>2023-01-10T13:53:19Z</time>
      </trkpt>
      <trkpt lat="49.08666" lon="1.89682">
        <ele>78</ele>
        <time>2023-01-10T13:54:22Z</time>
      </trkpt>
      <trkpt lat="49.08654" lon="1.8969">
        <ele>78</ele>
        <time>2023-01-10T13:54:39Z</time>
      </trkpt>
      <trkpt lat="49.08641" lon="1.89686">
        <ele>78</ele>
        <time>2023-01-10T13:54:57Z</time>
      </trkpt>
      <trkpt lat="49.08636" lon="1.89692">
        <ele>78</ele>
        <time>2023-01-10T13:55:06Z</time>
      </trkpt>
      <trkpt lat="49.08616" lon="1.89689">
        <ele>78</ele>
        <time>2023-01-10T13:55:32Z</time>
      </trkpt>
      <trkpt lat="49.08595" lon="1.8968">
        <ele>77</ele>
        <time>2023-01-10T13:56:02Z</time>
      </trkpt>
      <trkpt lat="49.08575" lon="1.89663">
        <ele>77</ele>
        <time>2023-01-10T13:56:32Z</time>
      </trkpt>
      <trkpt lat="49.08554" lon="1.89658">
        <ele>78</ele>
        <time>2023-01-10T13:57:00Z</time>
      </trkpt>
      <trkpt lat="49.08539" lon="1.89676">
        <ele>78</ele>
        <time>2023-01-10T13:57:26Z</time>
      </trkpt>
      <trkpt lat="49.08515" lon="1.89754">
        <ele>77</ele>
        <time>2023-01-10T13:58:41Z</time>
      </trkpt>
      <trkpt lat="49.08496" lon="1.89777">
        <ele>77</ele>
        <time>2023-01-10T13:59:14Z</time>
      </trkpt>
      <trkpt lat="49.08428" lon="1.89763">
        <ele>77</ele>
        <time>2023-01-10T14:00:45Z</time>
      </trkpt>
      <trkpt lat="49.08419" lon="1.89757">
        <ele>77</ele>
        <time>2023-01-10T14:00:58Z</time>
      </trkpt>
      <trkpt lat="49.08397" lon="1.89752">
        <ele>77</ele>
        <time>2023-01-10T14:01:28Z</time>
      </trkpt>
      <trkpt lat="49.08385" lon="1.89755">
        <ele>78</ele>
        <time>2023-01-10T14:01:44Z</time>
      </trkpt>
      <trkpt lat="49.08369" lon="1.89773">
        <ele>77</ele>
        <time>2023-01-10T14:02:11Z</time>
      </trkpt>
      <trkpt lat="49.08343" lon="1.89829">
        <ele>77</ele>
        <time>2023-01-10T14:03:11Z</time>
      </trkpt>
      <trkpt lat="49.08327" lon="1.89853">
        <ele>77</ele>
        <time>2023-01-10T14:03:41Z</time>
      </trkpt>
      <trkpt lat="49.08269" lon="1.89912">
        <ele>80</ele>
        <time>2023-01-10T14:05:14Z</time>
      </trkpt>
      <trkpt lat="49.08235" lon="1.89944">
        <ele>81</ele>
        <time>2023-01-10T14:06:07Z</time>
      </trkpt>
      <trkpt lat="49.08194" lon="1.89975">
        <ele>82</ele>
        <time>2023-01-10T14:07:08Z</time>
      </trkpt>
      <trkpt lat="49.08135" lon="1.9001">
        <ele>85</ele>
        <time>2023-01-10T14:08:32Z</time>
      </trkpt>
      <trkpt lat="49.08108" lon="1.90019">
        <ele>85</ele>
        <time>2023-01-10T14:09:09Z</time>
      </trkpt>
      <trkpt lat="49.0806" lon="1.90025">
        <ele>86</ele>
        <time>2023-01-10T14:10:14Z</time>
      </trkpt>
      <trkpt lat="49.08028" lon="1.90021">
        <ele>86</ele>
        <time>2023-01-10T14:10:56Z</time>
      </trkpt>
      <trkpt lat="49.07997" lon="1.90025">
        <ele>86</ele>
        <time>2023-01-10T14:11:38Z</time>
      </trkpt>
      <trkpt lat="49.0792" lon="1.90044">
        <ele>85</ele>
        <time>2023-01-10T14:13:22Z</time>
      </trkpt>
      <trkpt lat="49.07872" lon="1.90042">
        <ele>84</ele>
        <time>2023-01-10T14:14:26Z</time>
      </trkpt>
      <trkpt lat="49.07842" lon="1.90045">
        <ele>84</ele>
        <time>2023-01-10T14:15:06Z</time>
      </trkpt>
      <trkpt lat="49.07752" lon="1.90035">
        <ele>87</ele>
        <time>2023-01-10T14:17:07Z</time>
      </trkpt>
      <trkpt lat="49.07691" lon="1.90019">
        <ele>89</ele>
        <time>2023-01-10T14:18:29Z</time>
      </trkpt>
      <trkpt lat="49.07566" lon="1.89998">
        <ele>91</ele>
        <time>2023-01-10T14:21:17Z</time>
      </trkpt>
      <trkpt lat="49.07544" lon="1.90056">
        <ele>91</ele>
        <time>2023-01-10T14:22:16Z</time>
      </trkpt>
      <trkpt lat="49.07493" lon="1.90158">
        <ele>90</ele>
        <time>2023-01-10T14:24:08Z</time>
      </trkpt>
      <trkpt lat="49.07472" lon="1.90211">
        <ele>89</ele>
        <time>2023-01-10T14:25:02Z</time>
      </trkpt>
      <trkpt lat="49.07434" lon="1.90289">
        <ele>89</ele>
        <time>2023-01-10T14:26:27Z</time>
      </trkpt>
      <trkpt lat="49.07427" lon="1.90313">
        <ele>89</ele>
        <time>2023-01-10T14:26:50Z</time>
      </trkpt>
      <trkpt lat="49.0739" lon="1.90368">
        <ele>87</ele>
        <time>2023-01-10T14:27:59Z</time>
      </trkpt>
      <trkpt lat="49.07375" lon="1.90364">
        <ele>87</ele>
        <time>2023-01-10T14:28:19Z</time>
      </trkpt>
      <trkpt lat="49.07322" lon="1.90322">
        <ele>85</ele>
        <time>2023-01-10T14:29:39Z</time>
      </trkpt>
      <trkpt lat="49.07236" lon="1.90267">
        <ele>87</ele>
        <time>2023-01-10T14:31:43Z</time>
      </trkpt>
      <trkpt lat="49.07163" lon="1.90209">
        <ele>88</ele>
        <time>2023-01-10T14:33:33Z</time>
      </trkpt>
      <trkpt lat="49.07126" lon="1.90189">
        <ele>88</ele>
        <time>2023-01-10T14:34:25Z</time>
      </trkpt>
      <trkpt lat="49.07055" lon="1.9013">
        <ele>90</ele>
        <time>2023-01-10T14:36:13Z</time>
      </trkpt>
      <trkpt lat="49.07003" lon="1.90095">
        <ele>93</ele>
        <time>2023-01-10T14:37:29Z</time>
      </trkpt>
      <trkpt lat="49.06984" lon="1.90079">
        <ele>96</ele>
        <time>2023-01-10T14:37:58Z</time>
      </trkpt>
      <trkpt lat="49.06961" lon="1.90047">
        <ele>100</ele>
        <time>2023-01-10T14:38:40Z</time>
      </trkpt>
      <trkpt lat="49.06966" lon="1.90046">
        <ele>99</ele>
        <time>2023-01-10T14:38:46Z</time>
      </trkpt>
      <trkpt lat="49.0696" lon="1.90047">
        <ele>100</ele>
        <time>2023-01-10T14:38:54Z</time>
      </trkpt>
      <trkpt lat="49.06929" lon="1.89989">
        <ele>107</ele>
        <time>2023-01-10T14:40:00Z</time>
      </trkpt>
      <trkpt lat="49.06907" lon="1.89972">
        <ele>110</ele>
        <time>2023-01-10T14:40:33Z</time>
      </trkpt>
      <trkpt lat="49.06858" lon="1.8995">
        <ele>114</ele>
        <time>2023-01-10T14:41:41Z</time>
      </trkpt>
      <trkpt lat="49.06831" lon="1.89932">
        <ele>115</ele>
        <time>2023-01-10T14:42:20Z</time>
      </trkpt>
      <trkpt lat="49.06798" lon="1.89894">
        <ele>117</ele>
        <time>2023-01-10T14:43:15Z</time>
      </trkpt>
      <trkpt lat="49.06783" lon="1.89883">
        <ele>117</ele>
        <time>2023-01-10T14:43:38Z</time>
      </trkpt>
      <trkpt lat="49.06747" lon="1.899">
        <ele>117</ele>
        <time>2023-01-10T14:44:28Z</time>
      </trkpt>
      <trkpt lat="49.06727" lon="1.89904">
        <ele>116</ele>
        <time>2023-01-10T14:44:55Z</time>
      </trkpt>
      <trkpt lat="49.06691" lon="1.89927">
        <ele>116</ele>
        <time>2023-01-10T14:45:47Z</time>
      </trkpt>
      <trkpt lat="49.06667" lon="1.89934">
        <ele>115</ele>
        <time>2023-01-10T14:46:20Z</time>
      </trkpt>
      <trkpt lat="49.06631" lon="1.89936">
        <ele>114</ele>
        <time>2023-01-10T14:47:08Z</time>
      </trkpt>
      <trkpt lat="49.066" lon="1.89927">
        <ele>113</ele>
        <time>2023-01-10T14:47:50Z</time>
      </trkpt>
      <trkpt lat="49.06565" lon="1.89925">
        <ele>112</ele>
        <time>2023-01-10T14:48:36Z</time>
      </trkpt>
      <trkpt lat="49.06538" lon="1.89933">
        <ele>112</ele>
        <time>2023-01-10T14:49:13Z</time>
      </trkpt>
      <trkpt lat="49.06497" lon="1.89965">
        <ele>110</ele>
        <time>2023-01-10T14:50:15Z</time>
      </trkpt>
      <trkpt lat="49.06473" lon="1.89976">
        <ele>110</ele>
        <time>2023-01-10T14:50:48Z</time>
      </trkpt>
      <trkpt lat="49.06456" lon="1.89979">
        <ele>109</ele>
        <time>2023-01-10T14:51:11Z</time>
      </trkpt>
      <trkpt lat="49.06401" lon="1.89971">
        <ele>108</ele>
        <time>2023-01-10T14:52:25Z</time>
      </trkpt>
      <trkpt lat="49.06395" lon="1.89981">
        <ele>108</ele>
        <time>2023-01-10T14:52:36Z</time>
      </trkpt>
      <trkpt lat="49.06386" lon="1.90028">
        <ele>107</ele>
        <time>2023-01-10T14:53:19Z</time>
      </trkpt>
      <trkpt lat="49.06372" lon="1.9007">
        <ele>107</ele>
        <time>2023-01-10T14:54:00Z</time>
      </trkpt>
      <trkpt lat="49.06368" lon="1.90077">
        <ele>106</ele>
        <time>2023-01-10T14:54:09Z</time>
      </trkpt>
      <trkpt lat="49.06362" lon="1.90079">
        <ele>106</ele>
        <time>2023-01-10T14:54:17Z</time>
      </trkpt>
      <trkpt lat="49.06232" lon="1.89965">
        <ele>106</ele>
        <time>2023-01-10T14:57:37Z</time>
      </trkpt>
      <trkpt lat="49.06216" lon="1.89924">
        <ele>106</ele>
        <time>2023-01-10T14:58:19Z</time>
      </trkpt>
      <trkpt lat="49.06209" lon="1.89886">
        <ele>106</ele>
        <time>2023-01-10T14:58:53Z</time>
      </trkpt>
      <trkpt lat="49.06157" lon="1.89702">
        <ele>104</ele>
        <time>2023-01-10T15:01:48Z</time>
      </trkpt>
      <trkpt lat="49.06084" lon="1.89507">
        <ele>105</ele>
        <time>2023-01-10T15:05:05Z</time>
      </trkpt>
      <trkpt lat="49.06075" lon="1.8947">
        <ele>105</ele>
        <time>2023-01-10T15:05:39Z</time>
      </trkpt>
      <trkpt lat="49.06041" lon="1.89384">
        <ele>105</ele>
        <time>2023-01-10T15:07:07Z</time>
      </trkpt>
      <trkpt lat="49.05946" lon="1.89185">
        <ele>106</ele>
        <time>2023-01-10T15:10:42Z</time>
      </trkpt>
      <trkpt lat="49.05869" lon="1.89068">
        <ele>106</ele>
        <time>2023-01-10T15:13:07Z</time>
      </trkpt>
      <trkpt lat="49.05838" lon="1.89043">
        <ele>106</ele>
        <time>2023-01-10T15:13:54Z</time>
      </trkpt>
      <trkpt lat="49.05781" lon="1.89024">
        <ele>105</ele>
        <time>2023-01-10T15:15:12Z</time>
      </trkpt>
      <trkpt lat="49.05732" lon="1.88972">
        <ele>103</ele>
        <time>2023-01-10T15:16:32Z</time>
      </trkpt>
      <trkpt lat="49.05708" lon="1.88928">
        <ele>102</ele>
        <time>2023-01-10T15:17:22Z</time>
      </trkpt>
      <trkpt lat="49.05691" lon="1.88906">
        <ele>102</ele>
        <time>2023-01-10T15:17:51Z</time>
      </trkpt>
      <trkpt lat="49.05635" lon="1.88863">
        <ele>101</ele>
        <time>2023-01-10T15:19:15Z</time>
      </trkpt>
      <trkpt lat="49.05619" lon="1.88844">
        <ele>100</ele>
        <time>2023-01-10T15:19:42Z</time>
      </trkpt>
      <trkpt lat="49.05611" lon="1.88815">
        <ele>100</ele>
        <time>2023-01-10T15:20:10Z</time>
      </trkpt>
      <trkpt lat="49.05628" lon="1.88743">
        <ele>100</ele>
        <time>2023-01-10T15:21:17Z</time>
      </trkpt>
      <trkpt lat="49.05627" lon="1.88713">
        <ele>99</ele>
        <time>2023-01-10T15:21:43Z</time>
      </trkpt>
      <trkpt lat="49.05595" lon="1.88613">
        <ele>96</ele>
        <time>2023-01-10T15:23:20Z</time>
      </trkpt>
      <trkpt lat="49.05563" lon="1.88536">
        <ele>96</ele>
        <time>2023-01-10T15:24:40Z</time>
      </trkpt>
      <trkpt lat="49.05522" lon="1.88474">
        <ele>98</ele>
        <time>2023-01-10T15:25:57Z</time>
      </trkpt>
      <trkpt lat="49.0549" lon="1.8841">
        <ele>99</ele>
        <time>2023-01-10T15:27:07Z</time>
      </trkpt>
      <trkpt lat="49.05472" lon="1.88385">
        <ele>99</ele>
        <time>2023-01-10T15:27:40Z</time>
      </trkpt>
      <trkpt lat="49.05442" lon="1.88327">
        <ele>100</ele>
        <time>2023-01-10T15:28:44Z</time>
      </trkpt>
      <trkpt lat="49.0536" lon="1.88188">
        <ele>100</ele>
        <time>2023-01-10T15:31:28Z</time>
      </trkpt>
      <trkpt lat="49.05322" lon="1.88109">
        <ele>100</ele>
        <time>2023-01-10T15:32:54Z</time>
      </trkpt>
      <trkpt lat="49.05317" lon="1.88087">
        <ele>100</ele>
        <time>2023-01-10T15:33:14Z</time>
      </trkpt>
      <trkpt lat="49.05272" lon="1.87997">
        <ele>100</ele>
        <time>2023-01-10T15:34:53Z</time>
      </trkpt>
      <trkpt lat="49.0524" lon="1.87916">
        <ele>102</ele>
        <time>2023-01-10T15:36:16Z</time>
      </trkpt>
      <trkpt lat="49.05211" lon="1.87862">
        <ele>102</ele>
        <time>2023-01-10T15:37:17Z</time>
      </trkpt>
      <trkpt lat="49.052" lon="1.87852">
        <ele>103</ele>
        <time>2023-01-10T15:37:34Z</time>
      </trkpt>
      <trkpt lat="49.05175" lon="1.87813">
        <ele>103</ele>
        <time>2023-01-10T15:38:22Z</time>
      </trkpt>
      <trkpt lat="49.05125" lon="1.87755">
        <ele>102</ele>
        <time>2023-01-10T15:39:45Z</time>
      </trkpt>
      <trkpt lat="49.05015" lon="1.87606">
        <ele>95</ele>
        <time>2023-01-10T15:43:02Z</time>
      </trkpt>
      <trkpt lat="49.04994" lon="1.87586">
        <ele>92</ele>
        <time>2023-01-10T15:43:35Z</time>
      </trkpt>
      <trkpt lat="49.04988" lon="1.87569">
        <ele>91</ele>
        <time>2023-01-10T15:43:52Z</time>
      </trkpt>
      <trkpt lat="49.04956" lon="1.87534">
        <ele>85</ele>
        <time>2023-01-10T15:44:44Z</time>
      </trkpt>
      <trkpt lat="49.04947" lon="1.87511">
        <ele>83</ele>
        <time>2023-01-10T15:45:08Z</time>
      </trkpt>
      <trkpt lat="49.04931" lon="1.87486">
        <ele>81</ele>
        <time>2023-01-10T15:45:38Z</time>
      </trkpt>
      <trkpt lat="49.04921" lon="1.87485">
        <ele>80</ele>
        <time>2023-01-10T15:45:52Z</time>
      </trkpt>
      <trkpt lat="49.04851" lon="1.87519">
        <ele>74</ele>
        <time>2023-01-10T15:47:30Z</time>
      </trkpt>
      <trkpt lat="49.04835" lon="1.87531">
        <ele>73</ele>
        <time>2023-01-10T15:47:53Z</time>
      </trkpt>
      <trkpt lat="49.04816" lon="1.87555">
        <ele>71</ele>
        <time>2023-01-10T15:48:26Z</time>
      </trkpt>
      <trkpt lat="49.04806" lon="1.87598">
        <ele>69</ele>
        <time>2023-01-10T15:49:06Z</time>
      </trkpt>
      <trkpt lat="49.04792" lon="1.87619">
        <ele>68</ele>
        <time>2023-01-10T15:49:32Z</time>
      </trkpt>
      <trkpt lat="49.04785" lon="1.87671">
        <ele>66</ele>
        <time>2023-01-10T15:50:19Z</time>
      </trkpt>
      <trkpt lat="49.04787" lon="1.87685">
        <ele>66</ele>
        <time>2023-01-10T15:50:31Z</time>
      </trkpt>
      <trkpt lat="49.04782" lon="1.87689">
        <ele>66</ele>
        <time>2023-01-10T15:50:39Z</time>
      </trkpt>
      <trkpt lat="49.04774" lon="1.87688">
        <ele>65</ele>
        <time>2023-01-10T15:50:50Z</time>
      </trkpt>
      <trkpt lat="49.04769" lon="1.87707">
        <ele>65</ele>
        <time>2023-01-10T15:51:08Z</time>
      </trkpt>
      <trkpt lat="49.04768" lon="1.87724">
        <ele>65</ele>
        <time>2023-01-10T15:51:22Z</time>
      </trkpt>
      <trkpt lat="49.04772" lon="1.87727">
        <ele>65</ele>
        <time>2023-01-10T15:51:28Z</time>
      </trkpt>
      <trkpt lat="49.04777" lon="1.87751">
        <ele>65</ele>
        <time>2023-01-10T15:51:50Z</time>
      </trkpt>
      <trkpt lat="49.04782" lon="1.87802">
        <ele>65</ele>
        <time>2023-01-10T15:52:36Z</time>
      </trkpt>
      <trkpt lat="49.04739" lon="1.87914">
        <ele>64</ele>
        <time>2023-01-10T15:54:29Z</time>
      </trkpt>
      <trkpt lat="49.04722" lon="1.87917">
        <ele>65</ele>
        <time>2023-01-10T15:54:52Z</time>
      </trkpt>
      <trkpt lat="49.04705" lon="1.87901">
        <ele>65</ele>
        <time>2023-01-10T15:55:19Z</time>
      </trkpt>
      <trkpt lat="49.04695" lon="1.87897">
        <ele>64</ele>
        <time>2023-01-10T15:55:32Z</time>
      </trkpt>
      <trkpt lat="49.04679" lon="1.87898">
        <ele>65</ele>
        <time>2023-01-10T15:55:54Z</time>
      </trkpt>
      <trkpt lat="49.04659" lon="1.87891">
        <ele>65</ele>
        <time>2023-01-10T15:56:21Z</time>
      </trkpt>
      <trkpt lat="49.04631" lon="1.8786">
        <ele>64</ele>
        <time>2023-01-10T15:57:07Z</time>
      </trkpt>
      <trkpt lat="49.046" lon="1.87835">
        <ele>63</ele>
        <time>2023-01-10T15:57:54Z</time>
      </trkpt>
      <trkpt lat="49.04573" lon="1.87793">
        <ele>62</ele>
        <time>2023-01-10T15:58:46Z</time>
      </trkpt>
      <trkpt lat="49.04566" lon="1.8779">
        <ele>62</ele>
        <time>2023-01-10T15:58:55Z</time>
      </trkpt>
      <trkpt lat="49.04544" lon="1.87791">
        <ele>64</ele>
        <time>2023-01-10T15:59:25Z</time>
      </trkpt>
      <trkpt lat="49.04532" lon="1.87799">
        <ele>66</ele>
        <time>2023-01-10T15:59:42Z</time>
      </trkpt>
      <trkpt lat="49.04519" lon="1.87795">
        <ele>67</ele>
        <time>2023-01-10T16:00:00Z</time>
      </trkpt>
      <trkpt lat="49.04491" lon="1.87772">
        <ele>67</ele>
        <time>2023-01-10T16:00:42Z</time>
      </trkpt>
      <trkpt lat="49.04406" lon="1.8768">
        <ele>67</ele>
        <time>2023-01-10T16:03:01Z</time>
      </trkpt>
      <trkpt lat="49.04387" lon="1.87672">
        <ele>68</ele>
        <time>2023-01-10T16:03:28Z</time>
      </trkpt>
      <trkpt lat="49.04327" lon="1.8762">
        <ele>68</ele>
        <time>2023-01-10T16:05:00Z</time>
      </trkpt>
      <trkpt lat="49.0429" lon="1.87569">
        <ele>69</ele>
        <time>2023-01-10T16:06:06Z</time>
      </trkpt>
      <trkpt lat="49.04278" lon="1.87549">
        <ele>69</ele>
        <time>2023-01-10T16:06:30Z</time>
      </trkpt>
      <trkpt lat="49.04275" lon="1.87533">
        <ele>68</ele>
        <time>2023-01-10T16:06:44Z</time>
      </trkpt>
      <trkpt lat="49.04257" lon="1.87507">
        <ele>69</ele>
        <time>2023-01-10T16:07:18Z</time>
      </trkpt>
      <trkpt lat="49.04228" lon="1.87485">
        <ele>69</ele>
        <time>2023-01-10T16:08:01Z</time>
      </trkpt>
      <trkpt lat="49.04212" lon="1.87465">
        <ele>68</ele>
        <time>2023-01-10T16:08:28Z</time>
      </trkpt>
      <trkpt lat="49.04202" lon="1.8746">
        <ele>68</ele>
        <time>2023-01-10T16:08:42Z</time>
      </trkpt>
      <trkpt lat="49.04154" lon="1.87413">
        <ele>67</ele>
        <time>2023-01-10T16:09:59Z</time>
      </trkpt>
      <trkpt lat="49.04118" lon="1.87376">
        <ele>66</ele>
        <time>2023-01-10T16:10:56Z</time>
      </trkpt>
      <trkpt lat="49.04113" lon="1.87366">
        <ele>66</ele>
        <time>2023-01-10T16:11:07Z</time>
      </trkpt>
      <trkpt lat="49.04101" lon="1.87361">
        <ele>67</ele>
        <time>2023-01-10T16:11:24Z</time>
      </trkpt>
      <trkpt lat="49.0409" lon="1.87349">
        <ele>67</ele>
        <time>2023-01-10T16:11:42Z</time>
      </trkpt>
      <trkpt lat="49.04034" lon="1.87329">
        <ele>67</ele>
        <time>2023-01-10T16:12:59Z</time>
      </trkpt>
      <trkpt lat="49.03998" lon="1.87323">
        <ele>67</ele>
        <time>2023-01-10T16:13:47Z</time>
      </trkpt>
      <trkpt lat="49.03973" lon="1.8733">
        <ele>69</ele>
        <time>2023-01-10T16:14:21Z</time>
      </trkpt>
      <trkpt lat="49.03932" lon="1.8732">
        <ele>71</ele>
        <time>2023-01-10T16:15:17Z</time>
      </trkpt>
      <trkpt lat="49.03908" lon="1.87305">
        <ele>71</ele>
        <time>2023-01-10T16:15:51Z</time>
      </trkpt>
      <trkpt lat="49.03893" lon="1.8729">
        <ele>71</ele>
        <time>2023-01-10T16:16:15Z</time>
      </trkpt>
      <trkpt lat="49.0385" lon="1.87237">
        <ele>70</ele>
        <time>2023-01-10T16:17:29Z</time>
      </trkpt>
      <trkpt lat="49.03833" lon="1.8721">
        <ele>70</ele>
        <time>2023-01-10T16:18:02Z</time>
      </trkpt>
      <trkpt lat="49.03802" lon="1.87195">
        <ele>71</ele>
        <time>2023-01-10T16:18:45Z</time>
      </trkpt>
      <trkpt lat="49.03764" lon="1.87158">
        <ele>70</ele>
        <time>2023-01-10T16:19:45Z</time>
      </trkpt>
      <trkpt lat="49.03737" lon="1.87141">
        <ele>71</ele>
        <time>2023-01-10T16:20:24Z</time>
      </trkpt>
      <trkpt lat="49.03756" lon="1.87075">
        <ele>63</ele>
        <time>2023-01-10T16:21:27Z</time>
      </trkpt>
      <trkpt lat="49.03769" lon="1.87058">
        <ele>60</ele>
        <time>2023-01-10T16:21:50Z</time>
      </trkpt>
      <trkpt lat="49.03773" lon="1.87034">
        <ele>58</ele>
        <time>2023-01-10T16:22:12Z</time>
      </trkpt>
      <trkpt lat="49.03745" lon="1.87006">
        <ele>58</ele>
        <time>2023-01-10T16:22:56Z</time>
      </trkpt>
      <trkpt lat="49.03725" lon="1.86966">
        <ele>53</ele>
        <time>2023-01-10T16:23:40Z</time>
      </trkpt>
      <trkpt lat="49.03727" lon="1.86912">
        <ele>48</ele>
        <time>2023-01-10T16:24:28Z</time>
      </trkpt>
      <trkpt lat="49.03722" lon="1.86899">
        <ele>47</ele>
        <time>2023-01-10T16:24:41Z</time>
      </trkpt>
      <trkpt lat="49.03694" lon="1.86868">
        <ele>45</ele>
        <time>2023-01-10T16:25:27Z</time>
      </trkpt>
      <trkpt lat="49.03671" lon="1.86863">
        <ele>45</ele>
        <time>2023-01-10T16:25:58Z</time>
      </trkpt>
      <trkpt lat="49.03653" lon="1.86852">
        <ele>46</ele>
        <time>2023-01-10T16:26:24Z</time>
      </trkpt>
      <trkpt lat="49.0364" lon="1.86852">
        <ele>47</ele>
        <time>2023-01-10T16:26:41Z</time>
      </trkpt>
      <trkpt lat="49.03627" lon="1.86834">
        <ele>46</ele>
        <time>2023-01-10T16:27:05Z</time>
      </trkpt>
      <trkpt lat="49.03614" lon="1.86836">
        <ele>48</ele>
        <time>2023-01-10T16:27:22Z</time>
      </trkpt>
      <trkpt lat="49.03608" lon="1.8683">
        <ele>48</ele>
        <time>2023-01-10T16:27:32Z</time>
      </trkpt>
      <trkpt lat="49.0358" lon="1.86823">
        <ele>49</ele>
        <time>2023-01-10T16:28:10Z</time>
      </trkpt>
      <trkpt lat="49.03565" lon="1.86814">
        <ele>48</ele>
        <time>2023-01-10T16:28:31Z</time>
      </trkpt>
      <trkpt lat="49.03553" lon="1.86815">
        <ele>48</ele>
        <time>2023-01-10T16:28:47Z</time>
      </trkpt>
      <trkpt lat="49.03533" lon="1.86795">
        <ele>46</ele>
        <time>2023-01-10T16:29:19Z</time>
      </trkpt>
      <trkpt lat="49.03504" lon="1.86787">
        <ele>45</ele>
        <time>2023-01-10T16:29:58Z</time>
      </trkpt>
      <trkpt lat="49.03513" lon="1.86694">
        <ele>39</ele>
        <time>2023-01-10T16:31:21Z</time>
      </trkpt>
      <trkpt lat="49.03532" lon="1.86661">
        <ele>39</ele>
        <time>2023-01-10T16:31:59Z</time>
      </trkpt>
      <trkpt lat="49.03549" lon="1.86658">
        <ele>40</ele>
        <time>2023-01-10T16:32:22Z</time>
      </trkpt>
      <trkpt lat="49.03558" lon="1.86652">
        <ele>40</ele>
        <time>2023-01-10T16:32:35Z</time>
      </trkpt>
      <trkpt lat="49.03564" lon="1.86642">
        <ele>40</ele>
        <time>2023-01-10T16:32:47Z</time>
      </trkpt>
      <trkpt lat="49.03557" lon="1.86635">
        <ele>40</ele>
        <time>2023-01-10T16:32:58Z</time>
      </trkpt>
      <trkpt lat="49.03561" lon="1.86642">
        <ele>40</ele>
        <time>2023-01-10T16:33:06Z</time>
      </trkpt>
    </trkseg>
  </trk>
</gpx>